<?xml version="1.0" encoding="UTF-8" standalone="no" ?>
<gpx xmlns="http://www.topografix.com/GPX/1/1" xmlns:xsi="http://www.w3.org/2001/XMLSchema-instance" xsi:schemaLocation="http://www.topografix.com/GPX/1/1 http://www.topografix.com/GPX/1/1/gpx.xsd" version="1.1" creator="VisuGPX - https://www.visugpx.com">
  <metadata>
    <name>Randonnée au hameau de Valabre</name>
    <desc><![CDATA[Itinéraire de randonnée à Valabre]]></desc>
  </metadata>
  <trk>
    <name><![CDATA[Valabre]]></name>
    <desc><![CDATA[<p>Heure de départ: 05/24/2018 08:29</p><p>Heure d'arrivée: 05/24/2018 11:22</p><p>Distance: 6,5 km (02:53)</p><p>Temps déplacement: 01:52</p><p>Vitesse moyenne: 2,24 km/h</p><p>Vitesse moyenne mouv.: 3,46 km/h</p><p>Vitesse Max.: 11,9km/h</p><p>Altitude minimale: 475 m</p><p>Altitude maximale: 1229 m</p><p>Vitesse de montée: 485 m/h</p><p>Vitesse de descente: -458,4 m/h</p><p>Gain d'altitude: 755 m</p><p>Perte d'altitude: -460 m</p><p>Temps de montée: 01:33</p><p>Temps de descente: 01:00</p><hr align="center" width="480" style="height: 2px; width: 517px"/>]]></desc>
    <trkseg>
      <trkpt lat="44.13823" lon="7.09892">
        <ele>475.16</ele>
        <time>2018-05-24T06:29:21Z</time>
      </trkpt>
      <trkpt lat="44.1388" lon="7.09909">
        <ele>577.79</ele>
        <time>2018-05-24T06:29:22Z</time>
      </trkpt>
      <trkpt lat="44.13871" lon="7.0992">
        <ele>608.38</ele>
        <time>2018-05-24T06:29:23Z</time>
      </trkpt>
      <trkpt lat="44.13858" lon="7.09923">
        <ele>617.76</ele>
        <time>2018-05-24T06:31:04Z</time>
      </trkpt>
      <trkpt lat="44.13869" lon="7.09918">
        <ele>616.52</ele>
        <time>2018-05-24T06:32:39Z</time>
      </trkpt>
      <trkpt lat="44.13849" lon="7.09929">
        <ele>615.28</ele>
        <time>2018-05-24T06:34:22Z</time>
      </trkpt>
      <trkpt lat="44.13845" lon="7.09934">
        <ele>613.76</ele>
        <time>2018-05-24T06:34:34Z</time>
      </trkpt>
      <trkpt lat="44.13843" lon="7.09941">
        <ele>611.62</ele>
        <time>2018-05-24T06:34:41Z</time>
      </trkpt>
      <trkpt lat="44.1384" lon="7.09946">
        <ele>609.71</ele>
        <time>2018-05-24T06:34:47Z</time>
      </trkpt>
      <trkpt lat="44.13836" lon="7.09951">
        <ele>607.78</ele>
        <time>2018-05-24T06:34:54Z</time>
      </trkpt>
      <trkpt lat="44.1383" lon="7.0995">
        <ele>607.71</ele>
        <time>2018-05-24T06:35:04Z</time>
      </trkpt>
      <trkpt lat="44.13826" lon="7.09953">
        <ele>607.84</ele>
        <time>2018-05-24T06:35:07Z</time>
      </trkpt>
      <trkpt lat="44.1382" lon="7.09959">
        <ele>608.27</ele>
        <time>2018-05-24T06:35:12Z</time>
      </trkpt>
      <trkpt lat="44.13815" lon="7.09968">
        <ele>608.37</ele>
        <time>2018-05-24T06:35:14Z</time>
      </trkpt>
      <trkpt lat="44.1381" lon="7.09976">
        <ele>608.64</ele>
        <time>2018-05-24T06:35:16Z</time>
      </trkpt>
      <trkpt lat="44.13813" lon="7.0998">
        <ele>609.78</ele>
        <time>2018-05-24T06:35:22Z</time>
      </trkpt>
      <trkpt lat="44.13812" lon="7.09974">
        <ele>611.57</ele>
        <time>2018-05-24T06:35:29Z</time>
      </trkpt>
      <trkpt lat="44.13814" lon="7.09966">
        <ele>612.87</ele>
        <time>2018-05-24T06:35:34Z</time>
      </trkpt>
      <trkpt lat="44.13812" lon="7.09959">
        <ele>614.35</ele>
        <time>2018-05-24T06:35:40Z</time>
      </trkpt>
      <trkpt lat="44.13816" lon="7.09952">
        <ele>616.83</ele>
        <time>2018-05-24T06:35:47Z</time>
      </trkpt>
      <trkpt lat="44.13821" lon="7.09949">
        <ele>617.45</ele>
        <time>2018-05-24T06:35:49Z</time>
      </trkpt>
      <trkpt lat="44.13819" lon="7.09942">
        <ele>619.72</ele>
        <time>2018-05-24T06:35:57Z</time>
      </trkpt>
      <trkpt lat="44.13817" lon="7.09936">
        <ele>621.59</ele>
        <time>2018-05-24T06:36:04Z</time>
      </trkpt>
      <trkpt lat="44.13816" lon="7.09929">
        <ele>622.41</ele>
        <time>2018-05-24T06:36:13Z</time>
      </trkpt>
      <trkpt lat="44.1382" lon="7.09924">
        <ele>622.27</ele>
        <time>2018-05-24T06:36:16Z</time>
      </trkpt>
      <trkpt lat="44.13823" lon="7.09919">
        <ele>622.24</ele>
        <time>2018-05-24T06:36:18Z</time>
      </trkpt>
      <trkpt lat="44.13828" lon="7.09918">
        <ele>622.91</ele>
        <time>2018-05-24T06:36:26Z</time>
      </trkpt>
      <trkpt lat="44.13833" lon="7.09916">
        <ele>622.97</ele>
        <time>2018-05-24T06:36:28Z</time>
      </trkpt>
      <trkpt lat="44.13839" lon="7.09909">
        <ele>623.27</ele>
        <time>2018-05-24T06:36:31Z</time>
      </trkpt>
      <trkpt lat="44.13842" lon="7.09904">
        <ele>623.4</ele>
        <time>2018-05-24T06:36:35Z</time>
      </trkpt>
      <trkpt lat="44.13845" lon="7.09895">
        <ele>623.31</ele>
        <time>2018-05-24T06:36:37Z</time>
      </trkpt>
      <trkpt lat="44.13848" lon="7.09889">
        <ele>623.26</ele>
        <time>2018-05-24T06:36:44Z</time>
      </trkpt>
      <trkpt lat="44.13852" lon="7.09886">
        <ele>623.62</ele>
        <time>2018-05-24T06:36:51Z</time>
      </trkpt>
      <trkpt lat="44.13854" lon="7.0988">
        <ele>622.74</ele>
        <time>2018-05-24T06:36:59Z</time>
      </trkpt>
      <trkpt lat="44.13858" lon="7.09876">
        <ele>622.1</ele>
        <time>2018-05-24T06:37:05Z</time>
      </trkpt>
      <trkpt lat="44.13863" lon="7.09874">
        <ele>620.5</ele>
        <time>2018-05-24T06:37:12Z</time>
      </trkpt>
      <trkpt lat="44.13869" lon="7.09869">
        <ele>619.62</ele>
        <time>2018-05-24T06:37:15Z</time>
      </trkpt>
      <trkpt lat="44.13932" lon="7.09871">
        <ele>618.07</ele>
        <time>2018-05-24T06:37:56Z</time>
      </trkpt>
      <trkpt lat="44.13931" lon="7.09864">
        <ele>617.97</ele>
        <time>2018-05-24T06:38:04Z</time>
      </trkpt>
      <trkpt lat="44.13924" lon="7.09856">
        <ele>617.75</ele>
        <time>2018-05-24T06:38:15Z</time>
      </trkpt>
      <trkpt lat="44.13916" lon="7.09856">
        <ele>617.67</ele>
        <time>2018-05-24T06:38:17Z</time>
      </trkpt>
      <trkpt lat="44.13913" lon="7.09849">
        <ele>617.52</ele>
        <time>2018-05-24T06:38:23Z</time>
      </trkpt>
      <trkpt lat="44.13909" lon="7.0985">
        <ele>617.06</ele>
        <time>2018-05-24T06:38:39Z</time>
      </trkpt>
      <trkpt lat="44.13913" lon="7.09847">
        <ele>617.17</ele>
        <time>2018-05-24T06:39:27Z</time>
      </trkpt>
      <trkpt lat="44.13915" lon="7.09841">
        <ele>617.08</ele>
        <time>2018-05-24T06:39:43Z</time>
      </trkpt>
      <trkpt lat="44.13914" lon="7.09833">
        <ele>617.01</ele>
        <time>2018-05-24T06:39:47Z</time>
      </trkpt>
      <trkpt lat="44.13921" lon="7.09833">
        <ele>616.05</ele>
        <time>2018-05-24T06:40:15Z</time>
      </trkpt>
      <trkpt lat="44.13926" lon="7.09831">
        <ele>615.97</ele>
        <time>2018-05-24T06:40:21Z</time>
      </trkpt>
      <trkpt lat="44.13933" lon="7.09825">
        <ele>615.92</ele>
        <time>2018-05-24T06:40:23Z</time>
      </trkpt>
      <trkpt lat="44.13936" lon="7.0982">
        <ele>615.88</ele>
        <time>2018-05-24T06:40:34Z</time>
      </trkpt>
      <trkpt lat="44.1394" lon="7.09815">
        <ele>615.67</ele>
        <time>2018-05-24T06:40:40Z</time>
      </trkpt>
      <trkpt lat="44.13942" lon="7.09808">
        <ele>615.18</ele>
        <time>2018-05-24T06:40:50Z</time>
      </trkpt>
      <trkpt lat="44.13945" lon="7.09803">
        <ele>615.37</ele>
        <time>2018-05-24T06:41:07Z</time>
      </trkpt>
      <trkpt lat="44.13948" lon="7.09798">
        <ele>615.53</ele>
        <time>2018-05-24T06:41:09Z</time>
      </trkpt>
      <trkpt lat="44.13949" lon="7.0979">
        <ele>615.61</ele>
        <time>2018-05-24T06:41:13Z</time>
      </trkpt>
      <trkpt lat="44.13953" lon="7.09783">
        <ele>615.85</ele>
        <time>2018-05-24T06:41:23Z</time>
      </trkpt>
      <trkpt lat="44.13957" lon="7.09781">
        <ele>615.85</ele>
        <time>2018-05-24T06:41:24Z</time>
      </trkpt>
      <trkpt lat="44.13961" lon="7.09775">
        <ele>615.8</ele>
        <time>2018-05-24T06:41:34Z</time>
      </trkpt>
      <trkpt lat="44.13966" lon="7.09768">
        <ele>616.27</ele>
        <time>2018-05-24T06:42:52Z</time>
      </trkpt>
      <trkpt lat="44.13969" lon="7.09757">
        <ele>616.69</ele>
        <time>2018-05-24T06:43:00Z</time>
      </trkpt>
      <trkpt lat="44.13972" lon="7.09749">
        <ele>616.52</ele>
        <time>2018-05-24T06:43:05Z</time>
      </trkpt>
      <trkpt lat="44.13977" lon="7.09749">
        <ele>616.12</ele>
        <time>2018-05-24T06:43:11Z</time>
      </trkpt>
      <trkpt lat="44.13981" lon="7.09753">
        <ele>615.9</ele>
        <time>2018-05-24T06:43:16Z</time>
      </trkpt>
      <trkpt lat="44.13988" lon="7.09749">
        <ele>615.79</ele>
        <time>2018-05-24T06:43:31Z</time>
      </trkpt>
      <trkpt lat="44.13994" lon="7.09745">
        <ele>615.57</ele>
        <time>2018-05-24T06:43:51Z</time>
      </trkpt>
      <trkpt lat="44.13999" lon="7.09742">
        <ele>615.47</ele>
        <time>2018-05-24T06:43:53Z</time>
      </trkpt>
      <trkpt lat="44.14006" lon="7.09739">
        <ele>615.64</ele>
        <time>2018-05-24T06:44:03Z</time>
      </trkpt>
      <trkpt lat="44.1401" lon="7.09741">
        <ele>615.47</ele>
        <time>2018-05-24T06:44:13Z</time>
      </trkpt>
      <trkpt lat="44.14018" lon="7.09742">
        <ele>615.33</ele>
        <time>2018-05-24T06:44:21Z</time>
      </trkpt>
      <trkpt lat="44.14025" lon="7.09742">
        <ele>615.41</ele>
        <time>2018-05-24T06:44:31Z</time>
      </trkpt>
      <trkpt lat="44.1403" lon="7.09742">
        <ele>615.37</ele>
        <time>2018-05-24T06:44:34Z</time>
      </trkpt>
      <trkpt lat="44.14034" lon="7.09739">
        <ele>615.25</ele>
        <time>2018-05-24T06:44:43Z</time>
      </trkpt>
      <trkpt lat="44.1404" lon="7.09733">
        <ele>615.29</ele>
        <time>2018-05-24T06:44:48Z</time>
      </trkpt>
      <trkpt lat="44.14044" lon="7.0973">
        <ele>615.55</ele>
        <time>2018-05-24T06:45:03Z</time>
      </trkpt>
      <trkpt lat="44.14049" lon="7.09728">
        <ele>615.53</ele>
        <time>2018-05-24T06:45:05Z</time>
      </trkpt>
      <trkpt lat="44.14053" lon="7.09724">
        <ele>615.55</ele>
        <time>2018-05-24T06:45:08Z</time>
      </trkpt>
      <trkpt lat="44.14057" lon="7.09721">
        <ele>615.6</ele>
        <time>2018-05-24T06:45:15Z</time>
      </trkpt>
      <trkpt lat="44.14063" lon="7.09718">
        <ele>615.76</ele>
        <time>2018-05-24T06:45:17Z</time>
      </trkpt>
      <trkpt lat="44.14067" lon="7.09723">
        <ele>617.5</ele>
        <time>2018-05-24T06:45:42Z</time>
      </trkpt>
      <trkpt lat="44.14072" lon="7.09714">
        <ele>617.9</ele>
        <time>2018-05-24T06:45:45Z</time>
      </trkpt>
      <trkpt lat="44.14079" lon="7.09711">
        <ele>618.23</ele>
        <time>2018-05-24T06:45:47Z</time>
      </trkpt>
      <trkpt lat="44.14082" lon="7.09705">
        <ele>618.91</ele>
        <time>2018-05-24T06:45:52Z</time>
      </trkpt>
      <trkpt lat="44.14087" lon="7.09704">
        <ele>636.88</ele>
        <time>2018-05-24T06:46:58Z</time>
      </trkpt>
      <trkpt lat="44.14097" lon="7.09703">
        <ele>642.04</ele>
        <time>2018-05-24T06:47:03Z</time>
      </trkpt>
      <trkpt lat="44.14102" lon="7.09703">
        <ele>645.93</ele>
        <time>2018-05-24T06:47:07Z</time>
      </trkpt>
      <trkpt lat="44.14108" lon="7.09702">
        <ele>651.03</ele>
        <time>2018-05-24T06:47:12Z</time>
      </trkpt>
      <trkpt lat="44.14115" lon="7.09701">
        <ele>657.77</ele>
        <time>2018-05-24T06:47:17Z</time>
      </trkpt>
      <trkpt lat="44.14121" lon="7.097">
        <ele>659.17</ele>
        <time>2018-05-24T06:47:18Z</time>
      </trkpt>
      <trkpt lat="44.14125" lon="7.09699">
        <ele>660.6</ele>
        <time>2018-05-24T06:47:19Z</time>
      </trkpt>
      <trkpt lat="44.1413" lon="7.09699">
        <ele>662.01</ele>
        <time>2018-05-24T06:47:20Z</time>
      </trkpt>
      <trkpt lat="44.14136" lon="7.09693">
        <ele>664.96</ele>
        <time>2018-05-24T06:47:22Z</time>
      </trkpt>
      <trkpt lat="44.14143" lon="7.09692">
        <ele>667.13</ele>
        <time>2018-05-24T06:47:24Z</time>
      </trkpt>
      <trkpt lat="44.14149" lon="7.09687">
        <ele>671.79</ele>
        <time>2018-05-24T06:47:34Z</time>
      </trkpt>
      <trkpt lat="44.14146" lon="7.09682">
        <ele>675.41</ele>
        <time>2018-05-24T06:47:55Z</time>
      </trkpt>
      <trkpt lat="44.14141" lon="7.0968">
        <ele>675.35</ele>
        <time>2018-05-24T06:47:58Z</time>
      </trkpt>
      <trkpt lat="44.14139" lon="7.09672">
        <ele>675.52</ele>
        <time>2018-05-24T06:48:06Z</time>
      </trkpt>
      <trkpt lat="44.14146" lon="7.09665">
        <ele>676.26</ele>
        <time>2018-05-24T06:48:16Z</time>
      </trkpt>
      <trkpt lat="44.14151" lon="7.09662">
        <ele>679.54</ele>
        <time>2018-05-24T06:48:27Z</time>
      </trkpt>
      <trkpt lat="44.14152" lon="7.09656">
        <ele>686.41</ele>
        <time>2018-05-24T06:48:35Z</time>
      </trkpt>
      <trkpt lat="44.14148" lon="7.09656">
        <ele>696.24</ele>
        <time>2018-05-24T06:48:45Z</time>
      </trkpt>
      <trkpt lat="44.14143" lon="7.09656">
        <ele>700.34</ele>
        <time>2018-05-24T06:48:55Z</time>
      </trkpt>
      <trkpt lat="44.14137" lon="7.09652">
        <ele>701.76</ele>
        <time>2018-05-24T06:49:01Z</time>
      </trkpt>
      <trkpt lat="44.14133" lon="7.09649">
        <ele>701.73</ele>
        <time>2018-05-24T06:49:07Z</time>
      </trkpt>
      <trkpt lat="44.14128" lon="7.09647">
        <ele>701.61</ele>
        <time>2018-05-24T06:49:10Z</time>
      </trkpt>
      <trkpt lat="44.14125" lon="7.09643">
        <ele>701.8</ele>
        <time>2018-05-24T06:49:13Z</time>
      </trkpt>
      <trkpt lat="44.14129" lon="7.0964">
        <ele>700.75</ele>
        <time>2018-05-24T06:49:26Z</time>
      </trkpt>
      <trkpt lat="44.14134" lon="7.09641">
        <ele>701.75</ele>
        <time>2018-05-24T06:49:37Z</time>
      </trkpt>
      <trkpt lat="44.14139" lon="7.0964">
        <ele>704.43</ele>
        <time>2018-05-24T06:49:48Z</time>
      </trkpt>
      <trkpt lat="44.14145" lon="7.09641">
        <ele>709.98</ele>
        <time>2018-05-24T06:50:08Z</time>
      </trkpt>
      <trkpt lat="44.14153" lon="7.09642">
        <ele>710.05</ele>
        <time>2018-05-24T06:50:10Z</time>
      </trkpt>
      <trkpt lat="44.14161" lon="7.09641">
        <ele>713.13</ele>
        <time>2018-05-24T06:50:23Z</time>
      </trkpt>
      <trkpt lat="44.14166" lon="7.09639">
        <ele>716.74</ele>
        <time>2018-05-24T06:50:34Z</time>
      </trkpt>
      <trkpt lat="44.14171" lon="7.0964">
        <ele>723.39</ele>
        <time>2018-05-24T06:50:41Z</time>
      </trkpt>
      <trkpt lat="44.14176" lon="7.09641">
        <ele>726.7</ele>
        <time>2018-05-24T06:50:58Z</time>
      </trkpt>
      <trkpt lat="44.14183" lon="7.09636">
        <ele>726.12</ele>
        <time>2018-05-24T06:51:05Z</time>
      </trkpt>
      <trkpt lat="44.14188" lon="7.09634">
        <ele>727.17</ele>
        <time>2018-05-24T06:51:11Z</time>
      </trkpt>
      <trkpt lat="44.14192" lon="7.09632">
        <ele>730.3</ele>
        <time>2018-05-24T06:51:22Z</time>
      </trkpt>
      <trkpt lat="44.14199" lon="7.09632">
        <ele>732.04</ele>
        <time>2018-05-24T06:51:24Z</time>
      </trkpt>
      <trkpt lat="44.14205" lon="7.09634">
        <ele>736.56</ele>
        <time>2018-05-24T06:51:30Z</time>
      </trkpt>
      <trkpt lat="44.14212" lon="7.09635">
        <ele>738.54</ele>
        <time>2018-05-24T06:51:32Z</time>
      </trkpt>
      <trkpt lat="44.14217" lon="7.09637">
        <ele>741.62</ele>
        <time>2018-05-24T06:51:35Z</time>
      </trkpt>
      <trkpt lat="44.14223" lon="7.09641">
        <ele>744.39</ele>
        <time>2018-05-24T06:51:39Z</time>
      </trkpt>
      <trkpt lat="44.14227" lon="7.09645">
        <ele>744.53</ele>
        <time>2018-05-24T06:51:41Z</time>
      </trkpt>
      <trkpt lat="44.14231" lon="7.09647">
        <ele>745.34</ele>
        <time>2018-05-24T06:51:45Z</time>
      </trkpt>
      <trkpt lat="44.14236" lon="7.09649">
        <ele>747.63</ele>
        <time>2018-05-24T06:51:51Z</time>
      </trkpt>
      <trkpt lat="44.1424" lon="7.09655">
        <ele>751.53</ele>
        <time>2018-05-24T06:52:00Z</time>
      </trkpt>
      <trkpt lat="44.14246" lon="7.09655">
        <ele>755.46</ele>
        <time>2018-05-24T06:52:05Z</time>
      </trkpt>
      <trkpt lat="44.14246" lon="7.09648">
        <ele>761.78</ele>
        <time>2018-05-24T06:52:23Z</time>
      </trkpt>
      <trkpt lat="44.14244" lon="7.09641">
        <ele>769.02</ele>
        <time>2018-05-24T06:52:36Z</time>
      </trkpt>
      <trkpt lat="44.14239" lon="7.09642">
        <ele>777.15</ele>
        <time>2018-05-24T06:52:57Z</time>
      </trkpt>
      <trkpt lat="44.14234" lon="7.09644">
        <ele>800</ele>
        <time>2018-05-24T06:55:37Z</time>
      </trkpt>
      <trkpt lat="44.1423" lon="7.0964">
        <ele>803.82</ele>
        <time>2018-05-24T06:55:45Z</time>
      </trkpt>
      <trkpt lat="44.14235" lon="7.0964">
        <ele>810.89</ele>
        <time>2018-05-24T06:56:03Z</time>
      </trkpt>
      <trkpt lat="44.1424" lon="7.09645">
        <ele>814.5</ele>
        <time>2018-05-24T06:56:11Z</time>
      </trkpt>
      <trkpt lat="44.14245" lon="7.09648">
        <ele>816.84</ele>
        <time>2018-05-24T06:56:26Z</time>
      </trkpt>
      <trkpt lat="44.14249" lon="7.09652">
        <ele>821.88</ele>
        <time>2018-05-24T06:57:37Z</time>
      </trkpt>
      <trkpt lat="44.14252" lon="7.09647">
        <ele>823.24</ele>
        <time>2018-05-24T06:57:45Z</time>
      </trkpt>
      <trkpt lat="44.14256" lon="7.09643">
        <ele>824.07</ele>
        <time>2018-05-24T06:57:49Z</time>
      </trkpt>
      <trkpt lat="44.14259" lon="7.09638">
        <ele>824.96</ele>
        <time>2018-05-24T06:57:54Z</time>
      </trkpt>
      <trkpt lat="44.14263" lon="7.09634">
        <ele>826.4</ele>
        <time>2018-05-24T06:58:02Z</time>
      </trkpt>
      <trkpt lat="44.1426" lon="7.09638">
        <ele>829.2</ele>
        <time>2018-05-24T06:58:14Z</time>
      </trkpt>
      <trkpt lat="44.14255" lon="7.0964">
        <ele>830.71</ele>
        <time>2018-05-24T06:58:23Z</time>
      </trkpt>
      <trkpt lat="44.14253" lon="7.09634">
        <ele>831.45</ele>
        <time>2018-05-24T06:58:29Z</time>
      </trkpt>
      <trkpt lat="44.14251" lon="7.09626">
        <ele>831.98</ele>
        <time>2018-05-24T06:58:35Z</time>
      </trkpt>
      <trkpt lat="44.14247" lon="7.09622">
        <ele>832.79</ele>
        <time>2018-05-24T06:58:43Z</time>
      </trkpt>
      <trkpt lat="44.14251" lon="7.0962">
        <ele>836.41</ele>
        <time>2018-05-24T06:59:05Z</time>
      </trkpt>
      <trkpt lat="44.14256" lon="7.09624">
        <ele>837.58</ele>
        <time>2018-05-24T06:59:14Z</time>
      </trkpt>
      <trkpt lat="44.1426" lon="7.09619">
        <ele>838.82</ele>
        <time>2018-05-24T06:59:23Z</time>
      </trkpt>
      <trkpt lat="44.14255" lon="7.09618">
        <ele>843.24</ele>
        <time>2018-05-24T06:59:45Z</time>
      </trkpt>
      <trkpt lat="44.14252" lon="7.09613">
        <ele>845.32</ele>
        <time>2018-05-24T06:59:58Z</time>
      </trkpt>
      <trkpt lat="44.14247" lon="7.09613">
        <ele>846.25</ele>
        <time>2018-05-24T07:00:05Z</time>
      </trkpt>
      <trkpt lat="44.14242" lon="7.09612">
        <ele>847.18</ele>
        <time>2018-05-24T07:00:12Z</time>
      </trkpt>
      <trkpt lat="44.14238" lon="7.09611">
        <ele>847.9</ele>
        <time>2018-05-24T07:00:17Z</time>
      </trkpt>
      <trkpt lat="44.14235" lon="7.09605">
        <ele>848.49</ele>
        <time>2018-05-24T07:00:22Z</time>
      </trkpt>
      <trkpt lat="44.14231" lon="7.09601">
        <ele>849.21</ele>
        <time>2018-05-24T07:00:30Z</time>
      </trkpt>
      <trkpt lat="44.14225" lon="7.09604">
        <ele>850.14</ele>
        <time>2018-05-24T07:00:39Z</time>
      </trkpt>
      <trkpt lat="44.14219" lon="7.09603">
        <ele>850.47</ele>
        <time>2018-05-24T07:00:44Z</time>
      </trkpt>
      <trkpt lat="44.14222" lon="7.09598">
        <ele>850.95</ele>
        <time>2018-05-24T07:00:55Z</time>
      </trkpt>
      <trkpt lat="44.14226" lon="7.09595">
        <ele>851.35</ele>
        <time>2018-05-24T07:01:02Z</time>
      </trkpt>
      <trkpt lat="44.14231" lon="7.09593">
        <ele>852.37</ele>
        <time>2018-05-24T07:01:09Z</time>
      </trkpt>
      <trkpt lat="44.14236" lon="7.09594">
        <ele>854.03</ele>
        <time>2018-05-24T07:01:16Z</time>
      </trkpt>
      <trkpt lat="44.1424" lon="7.09598">
        <ele>855.15</ele>
        <time>2018-05-24T07:01:22Z</time>
      </trkpt>
      <trkpt lat="44.14244" lon="7.09598">
        <ele>856.17</ele>
        <time>2018-05-24T07:01:31Z</time>
      </trkpt>
      <trkpt lat="44.14249" lon="7.09596">
        <ele>857.14</ele>
        <time>2018-05-24T07:01:38Z</time>
      </trkpt>
      <trkpt lat="44.14253" lon="7.09593">
        <ele>858.08</ele>
        <time>2018-05-24T07:01:45Z</time>
      </trkpt>
      <trkpt lat="44.14258" lon="7.0959">
        <ele>858.49</ele>
        <time>2018-05-24T07:01:48Z</time>
      </trkpt>
      <trkpt lat="44.14263" lon="7.09588">
        <ele>859.39</ele>
        <time>2018-05-24T07:01:54Z</time>
      </trkpt>
      <trkpt lat="44.14268" lon="7.09587">
        <ele>860.82</ele>
        <time>2018-05-24T07:02:01Z</time>
      </trkpt>
      <trkpt lat="44.14273" lon="7.09587">
        <ele>862</ele>
        <time>2018-05-24T07:02:06Z</time>
      </trkpt>
      <trkpt lat="44.14277" lon="7.09584">
        <ele>864.22</ele>
        <time>2018-05-24T07:02:16Z</time>
      </trkpt>
      <trkpt lat="44.14272" lon="7.09582">
        <ele>867.99</ele>
        <time>2018-05-24T07:02:37Z</time>
      </trkpt>
      <trkpt lat="44.14267" lon="7.09582">
        <ele>869.1</ele>
        <time>2018-05-24T07:02:42Z</time>
      </trkpt>
      <trkpt lat="44.14263" lon="7.09583">
        <ele>870.28</ele>
        <time>2018-05-24T07:02:51Z</time>
      </trkpt>
      <trkpt lat="44.14258" lon="7.09584">
        <ele>870.59</ele>
        <time>2018-05-24T07:02:56Z</time>
      </trkpt>
      <trkpt lat="44.14253" lon="7.09584">
        <ele>871.01</ele>
        <time>2018-05-24T07:03:04Z</time>
      </trkpt>
      <trkpt lat="44.14248" lon="7.09585">
        <ele>871.95</ele>
        <time>2018-05-24T07:03:11Z</time>
      </trkpt>
      <trkpt lat="44.14244" lon="7.0958">
        <ele>872.61</ele>
        <time>2018-05-24T07:03:19Z</time>
      </trkpt>
      <trkpt lat="44.1424" lon="7.09577">
        <ele>872.95</ele>
        <time>2018-05-24T07:03:27Z</time>
      </trkpt>
      <trkpt lat="44.14236" lon="7.0958">
        <ele>875.09</ele>
        <time>2018-05-24T07:03:51Z</time>
      </trkpt>
      <trkpt lat="44.14231" lon="7.09576">
        <ele>877.53</ele>
        <time>2018-05-24T07:04:12Z</time>
      </trkpt>
      <trkpt lat="44.14227" lon="7.09579">
        <ele>879.02</ele>
        <time>2018-05-24T07:04:33Z</time>
      </trkpt>
      <trkpt lat="44.14231" lon="7.09574">
        <ele>880.31</ele>
        <time>2018-05-24T07:04:44Z</time>
      </trkpt>
      <trkpt lat="44.14236" lon="7.09572">
        <ele>881.02</ele>
        <time>2018-05-24T07:04:49Z</time>
      </trkpt>
      <trkpt lat="44.1424" lon="7.09571">
        <ele>881.41</ele>
        <time>2018-05-24T07:04:57Z</time>
      </trkpt>
      <trkpt lat="44.14245" lon="7.0957">
        <ele>881.63</ele>
        <time>2018-05-24T07:05:03Z</time>
      </trkpt>
      <trkpt lat="44.1425" lon="7.09565">
        <ele>882.13</ele>
        <time>2018-05-24T07:05:10Z</time>
      </trkpt>
      <trkpt lat="44.14256" lon="7.09563">
        <ele>882.81</ele>
        <time>2018-05-24T07:05:18Z</time>
      </trkpt>
      <trkpt lat="44.1426" lon="7.09562">
        <ele>884.15</ele>
        <time>2018-05-24T07:05:29Z</time>
      </trkpt>
      <trkpt lat="44.14266" lon="7.09562">
        <ele>884.67</ele>
        <time>2018-05-24T07:05:33Z</time>
      </trkpt>
      <trkpt lat="44.1427" lon="7.09558">
        <ele>885.42</ele>
        <time>2018-05-24T07:05:40Z</time>
      </trkpt>
      <trkpt lat="44.14267" lon="7.09553">
        <ele>886.59</ele>
        <time>2018-05-24T07:06:00Z</time>
      </trkpt>
      <trkpt lat="44.14262" lon="7.09552">
        <ele>887.09</ele>
        <time>2018-05-24T07:06:05Z</time>
      </trkpt>
      <trkpt lat="44.14257" lon="7.09552">
        <ele>888.15</ele>
        <time>2018-05-24T07:06:12Z</time>
      </trkpt>
      <trkpt lat="44.14252" lon="7.09552">
        <ele>889.11</ele>
        <time>2018-05-24T07:06:18Z</time>
      </trkpt>
      <trkpt lat="44.14247" lon="7.09553">
        <ele>890.35</ele>
        <time>2018-05-24T07:06:27Z</time>
      </trkpt>
      <trkpt lat="44.14242" lon="7.09551">
        <ele>891.23</ele>
        <time>2018-05-24T07:06:34Z</time>
      </trkpt>
      <trkpt lat="44.14237" lon="7.09551">
        <ele>892.77</ele>
        <time>2018-05-24T07:06:42Z</time>
      </trkpt>
      <trkpt lat="44.1423" lon="7.09551">
        <ele>894.01</ele>
        <time>2018-05-24T07:06:50Z</time>
      </trkpt>
      <trkpt lat="44.14225" lon="7.0955">
        <ele>894.92</ele>
        <time>2018-05-24T07:06:55Z</time>
      </trkpt>
      <trkpt lat="44.1422" lon="7.0955">
        <ele>896.22</ele>
        <time>2018-05-24T07:07:00Z</time>
      </trkpt>
      <trkpt lat="44.14216" lon="7.09549">
        <ele>897.85</ele>
        <time>2018-05-24T07:07:09Z</time>
      </trkpt>
      <trkpt lat="44.1421" lon="7.0955">
        <ele>898.3</ele>
        <time>2018-05-24T07:07:15Z</time>
      </trkpt>
      <trkpt lat="44.14205" lon="7.0955">
        <ele>898.85</ele>
        <time>2018-05-24T07:07:21Z</time>
      </trkpt>
      <trkpt lat="44.14206" lon="7.09544">
        <ele>901.75</ele>
        <time>2018-05-24T07:07:40Z</time>
      </trkpt>
      <trkpt lat="44.14211" lon="7.09541">
        <ele>902.25</ele>
        <time>2018-05-24T07:07:45Z</time>
      </trkpt>
      <trkpt lat="44.14215" lon="7.09538">
        <ele>902.8</ele>
        <time>2018-05-24T07:07:51Z</time>
      </trkpt>
      <trkpt lat="44.1422" lon="7.09539">
        <ele>903.75</ele>
        <time>2018-05-24T07:07:58Z</time>
      </trkpt>
      <trkpt lat="44.14224" lon="7.09535">
        <ele>904.8</ele>
        <time>2018-05-24T07:08:07Z</time>
      </trkpt>
      <trkpt lat="44.1423" lon="7.09531">
        <ele>905.32</ele>
        <time>2018-05-24T07:08:14Z</time>
      </trkpt>
      <trkpt lat="44.14234" lon="7.09529">
        <ele>905.6</ele>
        <time>2018-05-24T07:08:17Z</time>
      </trkpt>
      <trkpt lat="44.14239" lon="7.09527">
        <ele>906.34</ele>
        <time>2018-05-24T07:08:24Z</time>
      </trkpt>
      <trkpt lat="44.14244" lon="7.09526">
        <ele>906.97</ele>
        <time>2018-05-24T07:08:28Z</time>
      </trkpt>
      <trkpt lat="44.14249" lon="7.09526">
        <ele>907.95</ele>
        <time>2018-05-24T07:08:35Z</time>
      </trkpt>
      <trkpt lat="44.14254" lon="7.09526">
        <ele>909.46</ele>
        <time>2018-05-24T07:08:41Z</time>
      </trkpt>
      <trkpt lat="44.14259" lon="7.09527">
        <ele>910.23</ele>
        <time>2018-05-24T07:09:25Z</time>
      </trkpt>
      <trkpt lat="44.14265" lon="7.09527">
        <ele>911.39</ele>
        <time>2018-05-24T07:09:33Z</time>
      </trkpt>
      <trkpt lat="44.1426" lon="7.09525">
        <ele>913.11</ele>
        <time>2018-05-24T07:09:41Z</time>
      </trkpt>
      <trkpt lat="44.14255" lon="7.09522">
        <ele>913.85</ele>
        <time>2018-05-24T07:09:46Z</time>
      </trkpt>
      <trkpt lat="44.1425" lon="7.09519">
        <ele>914.68</ele>
        <time>2018-05-24T07:09:52Z</time>
      </trkpt>
      <trkpt lat="44.14255" lon="7.09519">
        <ele>916.27</ele>
        <time>2018-05-24T07:10:04Z</time>
      </trkpt>
      <trkpt lat="44.14261" lon="7.0952">
        <ele>917.85</ele>
        <time>2018-05-24T07:10:12Z</time>
      </trkpt>
      <trkpt lat="44.14266" lon="7.09519">
        <ele>918.51</ele>
        <time>2018-05-24T07:10:17Z</time>
      </trkpt>
      <trkpt lat="44.1427" lon="7.09517">
        <ele>919.11</ele>
        <time>2018-05-24T07:10:22Z</time>
      </trkpt>
      <trkpt lat="44.14273" lon="7.09512">
        <ele>920.04</ele>
        <time>2018-05-24T07:10:30Z</time>
      </trkpt>
      <trkpt lat="44.14277" lon="7.09507">
        <ele>920.95</ele>
        <time>2018-05-24T07:10:46Z</time>
      </trkpt>
      <trkpt lat="44.14279" lon="7.09513">
        <ele>918.71</ele>
        <time>2018-05-24T07:11:26Z</time>
      </trkpt>
      <trkpt lat="44.14283" lon="7.09508">
        <ele>921.71</ele>
        <time>2018-05-24T07:11:38Z</time>
      </trkpt>
      <trkpt lat="44.14287" lon="7.09504">
        <ele>923.22</ele>
        <time>2018-05-24T07:11:53Z</time>
      </trkpt>
      <trkpt lat="44.14286" lon="7.09498">
        <ele>923.1</ele>
        <time>2018-05-24T07:12:01Z</time>
      </trkpt>
      <trkpt lat="44.14286" lon="7.09492">
        <ele>922.04</ele>
        <time>2018-05-24T07:12:14Z</time>
      </trkpt>
      <trkpt lat="44.14291" lon="7.09492">
        <ele>922.05</ele>
        <time>2018-05-24T07:12:24Z</time>
      </trkpt>
      <trkpt lat="44.14296" lon="7.09491">
        <ele>922.7</ele>
        <time>2018-05-24T07:12:30Z</time>
      </trkpt>
      <trkpt lat="44.143" lon="7.09489">
        <ele>923.77</ele>
        <time>2018-05-24T07:12:36Z</time>
      </trkpt>
      <trkpt lat="44.14305" lon="7.09486">
        <ele>925.04</ele>
        <time>2018-05-24T07:12:44Z</time>
      </trkpt>
      <trkpt lat="44.1431" lon="7.09484">
        <ele>925.96</ele>
        <time>2018-05-24T07:12:49Z</time>
      </trkpt>
      <trkpt lat="44.14315" lon="7.09483">
        <ele>926.88</ele>
        <time>2018-05-24T07:12:54Z</time>
      </trkpt>
      <trkpt lat="44.14317" lon="7.09491">
        <ele>928.12</ele>
        <time>2018-05-24T07:13:01Z</time>
      </trkpt>
      <trkpt lat="44.14319" lon="7.09496">
        <ele>929.42</ele>
        <time>2018-05-24T07:13:10Z</time>
      </trkpt>
      <trkpt lat="44.14325" lon="7.09494">
        <ele>930.81</ele>
        <time>2018-05-24T07:13:17Z</time>
      </trkpt>
      <trkpt lat="44.1433" lon="7.09493">
        <ele>931.9</ele>
        <time>2018-05-24T07:13:23Z</time>
      </trkpt>
      <trkpt lat="44.14335" lon="7.09494">
        <ele>932.81</ele>
        <time>2018-05-24T07:13:28Z</time>
      </trkpt>
      <trkpt lat="44.1434" lon="7.09495">
        <ele>933.7</ele>
        <time>2018-05-24T07:13:33Z</time>
      </trkpt>
      <trkpt lat="44.14345" lon="7.09499">
        <ele>934.95</ele>
        <time>2018-05-24T07:13:38Z</time>
      </trkpt>
      <trkpt lat="44.1435" lon="7.09503">
        <ele>936.38</ele>
        <time>2018-05-24T07:13:43Z</time>
      </trkpt>
      <trkpt lat="44.14351" lon="7.0951">
        <ele>937.61</ele>
        <time>2018-05-24T07:13:49Z</time>
      </trkpt>
      <trkpt lat="44.1435" lon="7.09518">
        <ele>939.9</ele>
        <time>2018-05-24T07:14:05Z</time>
      </trkpt>
      <trkpt lat="44.14347" lon="7.09523">
        <ele>941.16</ele>
        <time>2018-05-24T07:14:12Z</time>
      </trkpt>
      <trkpt lat="44.14348" lon="7.09529">
        <ele>944.3</ele>
        <time>2018-05-24T07:16:24Z</time>
      </trkpt>
      <trkpt lat="44.14353" lon="7.09528">
        <ele>944.33</ele>
        <time>2018-05-24T07:16:32Z</time>
      </trkpt>
      <trkpt lat="44.14358" lon="7.09525">
        <ele>943.98</ele>
        <time>2018-05-24T07:16:37Z</time>
      </trkpt>
      <trkpt lat="44.14363" lon="7.09523">
        <ele>943.67</ele>
        <time>2018-05-24T07:16:42Z</time>
      </trkpt>
      <trkpt lat="44.14367" lon="7.09521">
        <ele>943.07</ele>
        <time>2018-05-24T07:17:03Z</time>
      </trkpt>
      <trkpt lat="44.14372" lon="7.09521">
        <ele>943.42</ele>
        <time>2018-05-24T07:17:07Z</time>
      </trkpt>
      <trkpt lat="44.14378" lon="7.09521">
        <ele>944.08</ele>
        <time>2018-05-24T07:17:13Z</time>
      </trkpt>
      <trkpt lat="44.14373" lon="7.09519">
        <ele>947.12</ele>
        <time>2018-05-24T07:17:36Z</time>
      </trkpt>
      <trkpt lat="44.14369" lon="7.09516">
        <ele>947.44</ele>
        <time>2018-05-24T07:17:40Z</time>
      </trkpt>
      <trkpt lat="44.14364" lon="7.09513">
        <ele>947.66</ele>
        <time>2018-05-24T07:17:43Z</time>
      </trkpt>
      <trkpt lat="44.14369" lon="7.09513">
        <ele>951.41</ele>
        <time>2018-05-24T07:18:09Z</time>
      </trkpt>
      <trkpt lat="44.14374" lon="7.09513">
        <ele>952.03</ele>
        <time>2018-05-24T07:18:13Z</time>
      </trkpt>
      <trkpt lat="44.14378" lon="7.0951">
        <ele>953.31</ele>
        <time>2018-05-24T07:18:22Z</time>
      </trkpt>
      <trkpt lat="44.14383" lon="7.0951">
        <ele>953.94</ele>
        <time>2018-05-24T07:18:28Z</time>
      </trkpt>
      <trkpt lat="44.14388" lon="7.0951">
        <ele>954.54</ele>
        <time>2018-05-24T07:18:34Z</time>
      </trkpt>
      <trkpt lat="44.14393" lon="7.0951">
        <ele>955.3</ele>
        <time>2018-05-24T07:18:42Z</time>
      </trkpt>
      <trkpt lat="44.14398" lon="7.09511">
        <ele>957.06</ele>
        <time>2018-05-24T07:19:03Z</time>
      </trkpt>
      <trkpt lat="44.14403" lon="7.09511">
        <ele>957.76</ele>
        <time>2018-05-24T07:19:12Z</time>
      </trkpt>
      <trkpt lat="44.14408" lon="7.0951">
        <ele>958.24</ele>
        <time>2018-05-24T07:19:16Z</time>
      </trkpt>
      <trkpt lat="44.14412" lon="7.09509">
        <ele>959.08</ele>
        <time>2018-05-24T07:19:21Z</time>
      </trkpt>
      <trkpt lat="44.14408" lon="7.09506">
        <ele>964.13</ele>
        <time>2018-05-24T07:20:00Z</time>
      </trkpt>
      <trkpt lat="44.14403" lon="7.09505">
        <ele>964.72</ele>
        <time>2018-05-24T07:20:07Z</time>
      </trkpt>
      <trkpt lat="44.14398" lon="7.09503">
        <ele>965.2</ele>
        <time>2018-05-24T07:20:11Z</time>
      </trkpt>
      <trkpt lat="44.14395" lon="7.09499">
        <ele>965.66</ele>
        <time>2018-05-24T07:20:17Z</time>
      </trkpt>
      <trkpt lat="44.14389" lon="7.09497">
        <ele>966.13</ele>
        <time>2018-05-24T07:20:23Z</time>
      </trkpt>
      <trkpt lat="44.14386" lon="7.09493">
        <ele>966.5</ele>
        <time>2018-05-24T07:20:26Z</time>
      </trkpt>
      <trkpt lat="44.14381" lon="7.0949">
        <ele>967.11</ele>
        <time>2018-05-24T07:20:32Z</time>
      </trkpt>
      <trkpt lat="44.14379" lon="7.09483">
        <ele>967.46</ele>
        <time>2018-05-24T07:20:38Z</time>
      </trkpt>
      <trkpt lat="44.14378" lon="7.09477">
        <ele>967.76</ele>
        <time>2018-05-24T07:20:44Z</time>
      </trkpt>
      <trkpt lat="44.14377" lon="7.09469">
        <ele>968.26</ele>
        <time>2018-05-24T07:20:50Z</time>
      </trkpt>
      <trkpt lat="44.14379" lon="7.09463">
        <ele>969.02</ele>
        <time>2018-05-24T07:20:55Z</time>
      </trkpt>
      <trkpt lat="44.14377" lon="7.09458">
        <ele>970.81</ele>
        <time>2018-05-24T07:21:06Z</time>
      </trkpt>
      <trkpt lat="44.14373" lon="7.09452">
        <ele>972.03</ele>
        <time>2018-05-24T07:21:15Z</time>
      </trkpt>
      <trkpt lat="44.14369" lon="7.09448">
        <ele>972.89</ele>
        <time>2018-05-24T07:21:21Z</time>
      </trkpt>
      <trkpt lat="44.14364" lon="7.09447">
        <ele>974.16</ele>
        <time>2018-05-24T07:21:45Z</time>
      </trkpt>
      <trkpt lat="44.1436" lon="7.09447">
        <ele>975</ele>
        <time>2018-05-24T07:21:52Z</time>
      </trkpt>
      <trkpt lat="44.14355" lon="7.09446">
        <ele>976.51</ele>
        <time>2018-05-24T07:22:02Z</time>
      </trkpt>
      <trkpt lat="44.1435" lon="7.09446">
        <ele>977.91</ele>
        <time>2018-05-24T07:22:09Z</time>
      </trkpt>
      <trkpt lat="44.14352" lon="7.0944">
        <ele>979.41</ele>
        <time>2018-05-24T07:22:26Z</time>
      </trkpt>
      <trkpt lat="44.14357" lon="7.0944">
        <ele>980.42</ele>
        <time>2018-05-24T07:22:35Z</time>
      </trkpt>
      <trkpt lat="44.14361" lon="7.09437">
        <ele>980.69</ele>
        <time>2018-05-24T07:22:39Z</time>
      </trkpt>
      <trkpt lat="44.14366" lon="7.09436">
        <ele>981.76</ele>
        <time>2018-05-24T07:22:48Z</time>
      </trkpt>
      <trkpt lat="44.14371" lon="7.09434">
        <ele>982.23</ele>
        <time>2018-05-24T07:22:52Z</time>
      </trkpt>
      <trkpt lat="44.14375" lon="7.09438">
        <ele>983.89</ele>
        <time>2018-05-24T07:23:01Z</time>
      </trkpt>
      <trkpt lat="44.14379" lon="7.0944">
        <ele>984.94</ele>
        <time>2018-05-24T07:23:08Z</time>
      </trkpt>
      <trkpt lat="44.14384" lon="7.09443">
        <ele>985.78</ele>
        <time>2018-05-24T07:23:12Z</time>
      </trkpt>
      <trkpt lat="44.14389" lon="7.09443">
        <ele>986.61</ele>
        <time>2018-05-24T07:23:16Z</time>
      </trkpt>
      <trkpt lat="44.14394" lon="7.09444">
        <ele>988.42</ele>
        <time>2018-05-24T07:23:27Z</time>
      </trkpt>
      <trkpt lat="44.14398" lon="7.09448">
        <ele>989.12</ele>
        <time>2018-05-24T07:23:35Z</time>
      </trkpt>
      <trkpt lat="44.14397" lon="7.09454">
        <ele>989.93</ele>
        <time>2018-05-24T07:23:44Z</time>
      </trkpt>
      <trkpt lat="44.144" lon="7.0946">
        <ele>990.86</ele>
        <time>2018-05-24T07:23:50Z</time>
      </trkpt>
      <trkpt lat="44.14404" lon="7.09462">
        <ele>991.73</ele>
        <time>2018-05-24T07:23:58Z</time>
      </trkpt>
      <trkpt lat="44.14409" lon="7.09461">
        <ele>992.65</ele>
        <time>2018-05-24T07:24:06Z</time>
      </trkpt>
      <trkpt lat="44.14414" lon="7.09462">
        <ele>993.44</ele>
        <time>2018-05-24T07:24:12Z</time>
      </trkpt>
      <trkpt lat="44.14419" lon="7.09464">
        <ele>994.52</ele>
        <time>2018-05-24T07:24:19Z</time>
      </trkpt>
      <trkpt lat="44.14423" lon="7.09465">
        <ele>995.96</ele>
        <time>2018-05-24T07:24:26Z</time>
      </trkpt>
      <trkpt lat="44.14428" lon="7.09466">
        <ele>997.14</ele>
        <time>2018-05-24T07:24:31Z</time>
      </trkpt>
      <trkpt lat="44.14433" lon="7.09466">
        <ele>998.48</ele>
        <time>2018-05-24T07:24:39Z</time>
      </trkpt>
      <trkpt lat="44.14438" lon="7.09467">
        <ele>999.1</ele>
        <time>2018-05-24T07:24:44Z</time>
      </trkpt>
      <trkpt lat="44.14443" lon="7.09467">
        <ele>999.73</ele>
        <time>2018-05-24T07:24:51Z</time>
      </trkpt>
      <trkpt lat="44.14448" lon="7.09466">
        <ele>1000.05</ele>
        <time>2018-05-24T07:24:57Z</time>
      </trkpt>
      <trkpt lat="44.14452" lon="7.09468">
        <ele>1000.83</ele>
        <time>2018-05-24T07:25:05Z</time>
      </trkpt>
      <trkpt lat="44.14456" lon="7.09472">
        <ele>1001.54</ele>
        <time>2018-05-24T07:25:11Z</time>
      </trkpt>
      <trkpt lat="44.14461" lon="7.09473">
        <ele>1001.96</ele>
        <time>2018-05-24T07:25:16Z</time>
      </trkpt>
      <trkpt lat="44.14467" lon="7.09476">
        <ele>1003.35</ele>
        <time>2018-05-24T07:25:25Z</time>
      </trkpt>
      <trkpt lat="44.14472" lon="7.09476">
        <ele>1004.63</ele>
        <time>2018-05-24T07:25:31Z</time>
      </trkpt>
      <trkpt lat="44.14476" lon="7.09471">
        <ele>1005.92</ele>
        <time>2018-05-24T07:25:42Z</time>
      </trkpt>
      <trkpt lat="44.1448" lon="7.09469">
        <ele>1007.06</ele>
        <time>2018-05-24T07:25:49Z</time>
      </trkpt>
      <trkpt lat="44.14483" lon="7.09463">
        <ele>1008.66</ele>
        <time>2018-05-24T07:26:10Z</time>
      </trkpt>
      <trkpt lat="44.14478" lon="7.09464">
        <ele>1009.09</ele>
        <time>2018-05-24T07:26:20Z</time>
      </trkpt>
      <trkpt lat="44.14474" lon="7.09468">
        <ele>1010.59</ele>
        <time>2018-05-24T07:26:29Z</time>
      </trkpt>
      <trkpt lat="44.14469" lon="7.09467">
        <ele>1011.32</ele>
        <time>2018-05-24T07:26:46Z</time>
      </trkpt>
      <trkpt lat="44.14467" lon="7.09461">
        <ele>1011.51</ele>
        <time>2018-05-24T07:26:53Z</time>
      </trkpt>
      <trkpt lat="44.14472" lon="7.09462">
        <ele>1011.8</ele>
        <time>2018-05-24T07:27:03Z</time>
      </trkpt>
      <trkpt lat="44.14476" lon="7.09459">
        <ele>1012</ele>
        <time>2018-05-24T07:27:11Z</time>
      </trkpt>
      <trkpt lat="44.14481" lon="7.09455">
        <ele>1012.18</ele>
        <time>2018-05-24T07:27:18Z</time>
      </trkpt>
      <trkpt lat="44.14484" lon="7.0945">
        <ele>1012.64</ele>
        <time>2018-05-24T07:27:28Z</time>
      </trkpt>
      <trkpt lat="44.14487" lon="7.09446">
        <ele>1013.73</ele>
        <time>2018-05-24T07:27:37Z</time>
      </trkpt>
      <trkpt lat="44.14491" lon="7.09444">
        <ele>1015.06</ele>
        <time>2018-05-24T07:27:44Z</time>
      </trkpt>
      <trkpt lat="44.14496" lon="7.09441">
        <ele>1016.1</ele>
        <time>2018-05-24T07:27:48Z</time>
      </trkpt>
      <trkpt lat="44.14499" lon="7.09436">
        <ele>1017.87</ele>
        <time>2018-05-24T07:27:56Z</time>
      </trkpt>
      <trkpt lat="44.14493" lon="7.09435">
        <ele>1020.29</ele>
        <time>2018-05-24T07:28:08Z</time>
      </trkpt>
      <trkpt lat="44.14489" lon="7.09437">
        <ele>1021.84</ele>
        <time>2018-05-24T07:28:18Z</time>
      </trkpt>
      <trkpt lat="44.14484" lon="7.0944">
        <ele>1022.73</ele>
        <time>2018-05-24T07:28:25Z</time>
      </trkpt>
      <trkpt lat="44.14479" lon="7.09441">
        <ele>1023.35</ele>
        <time>2018-05-24T07:28:30Z</time>
      </trkpt>
      <trkpt lat="44.14474" lon="7.09444">
        <ele>1024.24</ele>
        <time>2018-05-24T07:28:38Z</time>
      </trkpt>
      <trkpt lat="44.1447" lon="7.09446">
        <ele>1025.58</ele>
        <time>2018-05-24T07:28:45Z</time>
      </trkpt>
      <trkpt lat="44.14465" lon="7.09445">
        <ele>1026.68</ele>
        <time>2018-05-24T07:28:53Z</time>
      </trkpt>
      <trkpt lat="44.14461" lon="7.09443">
        <ele>1027.28</ele>
        <time>2018-05-24T07:29:01Z</time>
      </trkpt>
      <trkpt lat="44.14458" lon="7.09437">
        <ele>1027.95</ele>
        <time>2018-05-24T07:29:11Z</time>
      </trkpt>
      <trkpt lat="44.14455" lon="7.09432">
        <ele>1029.34</ele>
        <time>2018-05-24T07:29:20Z</time>
      </trkpt>
      <trkpt lat="44.14452" lon="7.09425">
        <ele>1030.92</ele>
        <time>2018-05-24T07:29:36Z</time>
      </trkpt>
      <trkpt lat="44.14447" lon="7.09421">
        <ele>1031.61</ele>
        <time>2018-05-24T07:29:49Z</time>
      </trkpt>
      <trkpt lat="44.14443" lon="7.09419">
        <ele>1031.9</ele>
        <time>2018-05-24T07:29:54Z</time>
      </trkpt>
      <trkpt lat="44.14448" lon="7.09417">
        <ele>1032.6</ele>
        <time>2018-05-24T07:30:06Z</time>
      </trkpt>
      <trkpt lat="44.14453" lon="7.09418">
        <ele>1033.28</ele>
        <time>2018-05-24T07:30:13Z</time>
      </trkpt>
      <trkpt lat="44.14457" lon="7.0942">
        <ele>1033.88</ele>
        <time>2018-05-24T07:30:18Z</time>
      </trkpt>
      <trkpt lat="44.14461" lon="7.09423">
        <ele>1034.62</ele>
        <time>2018-05-24T07:30:26Z</time>
      </trkpt>
      <trkpt lat="44.14465" lon="7.09425">
        <ele>1035.16</ele>
        <time>2018-05-24T07:30:31Z</time>
      </trkpt>
      <trkpt lat="44.1447" lon="7.09429">
        <ele>1036.18</ele>
        <time>2018-05-24T07:30:38Z</time>
      </trkpt>
      <trkpt lat="44.14475" lon="7.09425">
        <ele>1037.3</ele>
        <time>2018-05-24T07:30:48Z</time>
      </trkpt>
      <trkpt lat="44.14479" lon="7.0942">
        <ele>1038.09</ele>
        <time>2018-05-24T07:30:53Z</time>
      </trkpt>
      <trkpt lat="44.14483" lon="7.09416">
        <ele>1039.29</ele>
        <time>2018-05-24T07:31:00Z</time>
      </trkpt>
      <trkpt lat="44.14486" lon="7.09411">
        <ele>1041.54</ele>
        <time>2018-05-24T07:31:11Z</time>
      </trkpt>
      <trkpt lat="44.14489" lon="7.09405">
        <ele>1042.93</ele>
        <time>2018-05-24T07:31:19Z</time>
      </trkpt>
      <trkpt lat="44.14493" lon="7.09401">
        <ele>1043.46</ele>
        <time>2018-05-24T07:31:25Z</time>
      </trkpt>
      <trkpt lat="44.14495" lon="7.09396">
        <ele>1043.73</ele>
        <time>2018-05-24T07:31:31Z</time>
      </trkpt>
      <trkpt lat="44.145" lon="7.09393">
        <ele>1044.12</ele>
        <time>2018-05-24T07:31:39Z</time>
      </trkpt>
      <trkpt lat="44.14504" lon="7.09389">
        <ele>1044.68</ele>
        <time>2018-05-24T07:31:45Z</time>
      </trkpt>
      <trkpt lat="44.14508" lon="7.09386">
        <ele>1045.56</ele>
        <time>2018-05-24T07:31:51Z</time>
      </trkpt>
      <trkpt lat="44.14504" lon="7.09389">
        <ele>1048</ele>
        <time>2018-05-24T07:32:06Z</time>
      </trkpt>
      <trkpt lat="44.14499" lon="7.0939">
        <ele>1049.07</ele>
        <time>2018-05-24T07:32:11Z</time>
      </trkpt>
      <trkpt lat="44.14494" lon="7.09393">
        <ele>1050.37</ele>
        <time>2018-05-24T07:32:16Z</time>
      </trkpt>
      <trkpt lat="44.14489" lon="7.09396">
        <ele>1051.91</ele>
        <time>2018-05-24T07:32:25Z</time>
      </trkpt>
      <trkpt lat="44.14484" lon="7.09398">
        <ele>1052.66</ele>
        <time>2018-05-24T07:32:32Z</time>
      </trkpt>
      <trkpt lat="44.1448" lon="7.094">
        <ele>1054.1</ele>
        <time>2018-05-24T07:32:46Z</time>
      </trkpt>
      <trkpt lat="44.14475" lon="7.09401">
        <ele>1055.12</ele>
        <time>2018-05-24T07:32:57Z</time>
      </trkpt>
      <trkpt lat="44.1447" lon="7.09399">
        <ele>1055.6</ele>
        <time>2018-05-24T07:33:06Z</time>
      </trkpt>
      <trkpt lat="44.14466" lon="7.09396">
        <ele>1056.21</ele>
        <time>2018-05-24T07:33:14Z</time>
      </trkpt>
      <trkpt lat="44.14461" lon="7.09393">
        <ele>1056.32</ele>
        <time>2018-05-24T07:33:19Z</time>
      </trkpt>
      <trkpt lat="44.14457" lon="7.09389">
        <ele>1056.71</ele>
        <time>2018-05-24T07:33:28Z</time>
      </trkpt>
      <trkpt lat="44.14453" lon="7.09386">
        <ele>1057.02</ele>
        <time>2018-05-24T07:33:36Z</time>
      </trkpt>
      <trkpt lat="44.14449" lon="7.09382">
        <ele>1057.48</ele>
        <time>2018-05-24T07:33:42Z</time>
      </trkpt>
      <trkpt lat="44.14447" lon="7.09376">
        <ele>1057.98</ele>
        <time>2018-05-24T07:33:52Z</time>
      </trkpt>
      <trkpt lat="44.1445" lon="7.0938">
        <ele>1060.41</ele>
        <time>2018-05-24T07:34:20Z</time>
      </trkpt>
      <trkpt lat="44.14455" lon="7.09382">
        <ele>1061.01</ele>
        <time>2018-05-24T07:34:30Z</time>
      </trkpt>
      <trkpt lat="44.14459" lon="7.09382">
        <ele>1062.05</ele>
        <time>2018-05-24T07:34:43Z</time>
      </trkpt>
      <trkpt lat="44.14464" lon="7.09379">
        <ele>1062.37</ele>
        <time>2018-05-24T07:34:50Z</time>
      </trkpt>
      <trkpt lat="44.14469" lon="7.09378">
        <ele>1062.51</ele>
        <time>2018-05-24T07:34:54Z</time>
      </trkpt>
      <trkpt lat="44.14473" lon="7.09375">
        <ele>1063.13</ele>
        <time>2018-05-24T07:35:02Z</time>
      </trkpt>
      <trkpt lat="44.14477" lon="7.09371">
        <ele>1063.82</ele>
        <time>2018-05-24T07:35:08Z</time>
      </trkpt>
      <trkpt lat="44.14482" lon="7.09368">
        <ele>1065.17</ele>
        <time>2018-05-24T07:35:15Z</time>
      </trkpt>
      <trkpt lat="44.14487" lon="7.09365">
        <ele>1066.12</ele>
        <time>2018-05-24T07:35:21Z</time>
      </trkpt>
      <trkpt lat="44.14492" lon="7.09364">
        <ele>1066.89</ele>
        <time>2018-05-24T07:35:27Z</time>
      </trkpt>
      <trkpt lat="44.14496" lon="7.09363">
        <ele>1067.83</ele>
        <time>2018-05-24T07:35:33Z</time>
      </trkpt>
      <trkpt lat="44.14495" lon="7.09357">
        <ele>1069.14</ele>
        <time>2018-05-24T07:35:41Z</time>
      </trkpt>
      <trkpt lat="44.14491" lon="7.09359">
        <ele>1070.19</ele>
        <time>2018-05-24T07:35:51Z</time>
      </trkpt>
      <trkpt lat="44.14486" lon="7.09362">
        <ele>1070.94</ele>
        <time>2018-05-24T07:35:56Z</time>
      </trkpt>
      <trkpt lat="44.14481" lon="7.09363">
        <ele>1072.21</ele>
        <time>2018-05-24T07:36:04Z</time>
      </trkpt>
      <trkpt lat="44.14476" lon="7.09364">
        <ele>1073.44</ele>
        <time>2018-05-24T07:36:12Z</time>
      </trkpt>
      <trkpt lat="44.14471" lon="7.09362">
        <ele>1074.21</ele>
        <time>2018-05-24T07:36:18Z</time>
      </trkpt>
      <trkpt lat="44.14467" lon="7.09356">
        <ele>1074.78</ele>
        <time>2018-05-24T07:36:24Z</time>
      </trkpt>
      <trkpt lat="44.14465" lon="7.09351">
        <ele>1075.26</ele>
        <time>2018-05-24T07:36:31Z</time>
      </trkpt>
      <trkpt lat="44.14463" lon="7.09345">
        <ele>1076.67</ele>
        <time>2018-05-24T07:36:41Z</time>
      </trkpt>
      <trkpt lat="44.1446" lon="7.09341">
        <ele>1077.46</ele>
        <time>2018-05-24T07:36:47Z</time>
      </trkpt>
      <trkpt lat="44.14454" lon="7.0934">
        <ele>1078.59</ele>
        <time>2018-05-24T07:36:54Z</time>
      </trkpt>
      <trkpt lat="44.14448" lon="7.09339">
        <ele>1079.77</ele>
        <time>2018-05-24T07:37:00Z</time>
      </trkpt>
      <trkpt lat="44.14444" lon="7.09338">
        <ele>1080.76</ele>
        <time>2018-05-24T07:37:07Z</time>
      </trkpt>
      <trkpt lat="44.14439" lon="7.09337">
        <ele>1081.95</ele>
        <time>2018-05-24T07:37:14Z</time>
      </trkpt>
      <trkpt lat="44.14433" lon="7.09337">
        <ele>1082.85</ele>
        <time>2018-05-24T07:37:20Z</time>
      </trkpt>
      <trkpt lat="44.14429" lon="7.09334">
        <ele>1083.77</ele>
        <time>2018-05-24T07:37:26Z</time>
      </trkpt>
      <trkpt lat="44.14425" lon="7.09331">
        <ele>1084.3</ele>
        <time>2018-05-24T07:37:31Z</time>
      </trkpt>
      <trkpt lat="44.1442" lon="7.09331">
        <ele>1085.13</ele>
        <time>2018-05-24T07:37:39Z</time>
      </trkpt>
      <trkpt lat="44.14415" lon="7.09329">
        <ele>1086.03</ele>
        <time>2018-05-24T07:37:47Z</time>
      </trkpt>
      <trkpt lat="44.14411" lon="7.09325">
        <ele>1086.73</ele>
        <time>2018-05-24T07:37:52Z</time>
      </trkpt>
      <trkpt lat="44.14408" lon="7.0932">
        <ele>1087.77</ele>
        <time>2018-05-24T07:37:57Z</time>
      </trkpt>
      <trkpt lat="44.14404" lon="7.09317">
        <ele>1088.74</ele>
        <time>2018-05-24T07:38:03Z</time>
      </trkpt>
      <trkpt lat="44.14408" lon="7.09316">
        <ele>1090.62</ele>
        <time>2018-05-24T07:38:20Z</time>
      </trkpt>
      <trkpt lat="44.14414" lon="7.09314">
        <ele>1091.26</ele>
        <time>2018-05-24T07:38:28Z</time>
      </trkpt>
      <trkpt lat="44.14418" lon="7.09314">
        <ele>1091.64</ele>
        <time>2018-05-24T07:38:32Z</time>
      </trkpt>
      <trkpt lat="44.14423" lon="7.09313">
        <ele>1092.34</ele>
        <time>2018-05-24T07:38:37Z</time>
      </trkpt>
      <trkpt lat="44.14428" lon="7.09312">
        <ele>1092.92</ele>
        <time>2018-05-24T07:38:42Z</time>
      </trkpt>
      <trkpt lat="44.14433" lon="7.09312">
        <ele>1093.69</ele>
        <time>2018-05-24T07:38:47Z</time>
      </trkpt>
      <trkpt lat="44.14438" lon="7.0931">
        <ele>1095.45</ele>
        <time>2018-05-24T07:38:57Z</time>
      </trkpt>
      <trkpt lat="44.14443" lon="7.09311">
        <ele>1097.01</ele>
        <time>2018-05-24T07:39:04Z</time>
      </trkpt>
      <trkpt lat="44.14448" lon="7.09308">
        <ele>1098.33</ele>
        <time>2018-05-24T07:39:10Z</time>
      </trkpt>
      <trkpt lat="44.14452" lon="7.09306">
        <ele>1099.36</ele>
        <time>2018-05-24T07:39:15Z</time>
      </trkpt>
      <trkpt lat="44.14456" lon="7.09301">
        <ele>1100.99</ele>
        <time>2018-05-24T07:39:23Z</time>
      </trkpt>
      <trkpt lat="44.1446" lon="7.09298">
        <ele>1101.51</ele>
        <time>2018-05-24T07:39:28Z</time>
      </trkpt>
      <trkpt lat="44.14464" lon="7.09295">
        <ele>1101.93</ele>
        <time>2018-05-24T07:39:34Z</time>
      </trkpt>
      <trkpt lat="44.14468" lon="7.09291">
        <ele>1102.21</ele>
        <time>2018-05-24T07:39:38Z</time>
      </trkpt>
      <trkpt lat="44.14472" lon="7.09287">
        <ele>1103.76</ele>
        <time>2018-05-24T07:39:48Z</time>
      </trkpt>
      <trkpt lat="44.14477" lon="7.09284">
        <ele>1105.35</ele>
        <time>2018-05-24T07:39:56Z</time>
      </trkpt>
      <trkpt lat="44.14483" lon="7.09277">
        <ele>1106</ele>
        <time>2018-05-24T07:40:01Z</time>
      </trkpt>
      <trkpt lat="44.14487" lon="7.09274">
        <ele>1106.6</ele>
        <time>2018-05-24T07:40:07Z</time>
      </trkpt>
      <trkpt lat="44.14485" lon="7.09268">
        <ele>1108.54</ele>
        <time>2018-05-24T07:40:20Z</time>
      </trkpt>
      <trkpt lat="44.1448" lon="7.09269">
        <ele>1109.37</ele>
        <time>2018-05-24T07:40:25Z</time>
      </trkpt>
      <trkpt lat="44.14475" lon="7.09269">
        <ele>1110.24</ele>
        <time>2018-05-24T07:40:36Z</time>
      </trkpt>
      <trkpt lat="44.1447" lon="7.0927">
        <ele>1110.92</ele>
        <time>2018-05-24T07:40:40Z</time>
      </trkpt>
      <trkpt lat="44.14465" lon="7.09271">
        <ele>1112.14</ele>
        <time>2018-05-24T07:40:46Z</time>
      </trkpt>
      <trkpt lat="44.1446" lon="7.09274">
        <ele>1113.98</ele>
        <time>2018-05-24T07:40:53Z</time>
      </trkpt>
      <trkpt lat="44.14456" lon="7.09274">
        <ele>1115.01</ele>
        <time>2018-05-24T07:40:57Z</time>
      </trkpt>
      <trkpt lat="44.14451" lon="7.09274">
        <ele>1115.46</ele>
        <time>2018-05-24T07:41:01Z</time>
      </trkpt>
      <trkpt lat="44.14446" lon="7.09273">
        <ele>1116.79</ele>
        <time>2018-05-24T07:41:09Z</time>
      </trkpt>
      <trkpt lat="44.14442" lon="7.09275">
        <ele>1117.82</ele>
        <time>2018-05-24T07:41:17Z</time>
      </trkpt>
      <trkpt lat="44.14443" lon="7.09281">
        <ele>1117.86</ele>
        <time>2018-05-24T07:41:27Z</time>
      </trkpt>
      <trkpt lat="44.14439" lon="7.09277">
        <ele>1117.99</ele>
        <time>2018-05-24T07:41:43Z</time>
      </trkpt>
      <trkpt lat="44.14435" lon="7.09273">
        <ele>1118.32</ele>
        <time>2018-05-24T07:41:49Z</time>
      </trkpt>
      <trkpt lat="44.1443" lon="7.09271">
        <ele>1118.9</ele>
        <time>2018-05-24T07:41:56Z</time>
      </trkpt>
      <trkpt lat="44.14425" lon="7.09267">
        <ele>1119.15</ele>
        <time>2018-05-24T07:42:02Z</time>
      </trkpt>
      <trkpt lat="44.1442" lon="7.09264">
        <ele>1119.33</ele>
        <time>2018-05-24T07:42:08Z</time>
      </trkpt>
      <trkpt lat="44.14418" lon="7.09259">
        <ele>1119.78</ele>
        <time>2018-05-24T07:42:20Z</time>
      </trkpt>
      <trkpt lat="44.14422" lon="7.09259">
        <ele>1120.79</ele>
        <time>2018-05-24T07:42:30Z</time>
      </trkpt>
      <trkpt lat="44.14427" lon="7.09257">
        <ele>1121.33</ele>
        <time>2018-05-24T07:42:38Z</time>
      </trkpt>
      <trkpt lat="44.14432" lon="7.09256">
        <ele>1121.56</ele>
        <time>2018-05-24T07:42:43Z</time>
      </trkpt>
      <trkpt lat="44.14436" lon="7.09252">
        <ele>1122</ele>
        <time>2018-05-24T07:42:52Z</time>
      </trkpt>
      <trkpt lat="44.14439" lon="7.09248">
        <ele>1122.38</ele>
        <time>2018-05-24T07:42:57Z</time>
      </trkpt>
      <trkpt lat="44.14444" lon="7.09244">
        <ele>1123.12</ele>
        <time>2018-05-24T07:43:02Z</time>
      </trkpt>
      <trkpt lat="44.14443" lon="7.09237">
        <ele>1125.08</ele>
        <time>2018-05-24T07:43:14Z</time>
      </trkpt>
      <trkpt lat="44.14438" lon="7.09239">
        <ele>1126.41</ele>
        <time>2018-05-24T07:43:27Z</time>
      </trkpt>
      <trkpt lat="44.14433" lon="7.09238">
        <ele>1127.2</ele>
        <time>2018-05-24T07:43:33Z</time>
      </trkpt>
      <trkpt lat="44.14429" lon="7.09239">
        <ele>1128.39</ele>
        <time>2018-05-24T07:43:39Z</time>
      </trkpt>
      <trkpt lat="44.14425" lon="7.09235">
        <ele>1129.18</ele>
        <time>2018-05-24T07:43:48Z</time>
      </trkpt>
      <trkpt lat="44.1442" lon="7.09235">
        <ele>1129.7</ele>
        <time>2018-05-24T07:44:15Z</time>
      </trkpt>
      <trkpt lat="44.14417" lon="7.09231">
        <ele>1130.65</ele>
        <time>2018-05-24T07:44:23Z</time>
      </trkpt>
      <trkpt lat="44.14412" lon="7.09229">
        <ele>1132.24</ele>
        <time>2018-05-24T07:44:30Z</time>
      </trkpt>
      <trkpt lat="44.14407" lon="7.09229">
        <ele>1133.68</ele>
        <time>2018-05-24T07:44:36Z</time>
      </trkpt>
      <trkpt lat="44.14403" lon="7.09225">
        <ele>1134.56</ele>
        <time>2018-05-24T07:44:40Z</time>
      </trkpt>
      <trkpt lat="44.144" lon="7.0922">
        <ele>1135.77</ele>
        <time>2018-05-24T07:44:49Z</time>
      </trkpt>
      <trkpt lat="44.14405" lon="7.09219">
        <ele>1136.05</ele>
        <time>2018-05-24T07:44:57Z</time>
      </trkpt>
      <trkpt lat="44.1441" lon="7.09217">
        <ele>1136.07</ele>
        <time>2018-05-24T07:45:04Z</time>
      </trkpt>
      <trkpt lat="44.14414" lon="7.09215">
        <ele>1136.04</ele>
        <time>2018-05-24T07:45:09Z</time>
      </trkpt>
      <trkpt lat="44.14419" lon="7.09216">
        <ele>1136.74</ele>
        <time>2018-05-24T07:45:16Z</time>
      </trkpt>
      <trkpt lat="44.14423" lon="7.09219">
        <ele>1137.85</ele>
        <time>2018-05-24T07:45:24Z</time>
      </trkpt>
      <trkpt lat="44.14419" lon="7.09216">
        <ele>1141.66</ele>
        <time>2018-05-24T07:46:03Z</time>
      </trkpt>
      <trkpt lat="44.14423" lon="7.09216">
        <ele>1145.23</ele>
        <time>2018-05-24T07:47:07Z</time>
      </trkpt>
      <trkpt lat="44.1442" lon="7.09211">
        <ele>1148.17</ele>
        <time>2018-05-24T07:47:26Z</time>
      </trkpt>
      <trkpt lat="44.14415" lon="7.0921">
        <ele>1149.33</ele>
        <time>2018-05-24T07:47:39Z</time>
      </trkpt>
      <trkpt lat="44.14411" lon="7.09206">
        <ele>1149.54</ele>
        <time>2018-05-24T07:47:54Z</time>
      </trkpt>
      <trkpt lat="44.14407" lon="7.09202">
        <ele>1149.67</ele>
        <time>2018-05-24T07:48:00Z</time>
      </trkpt>
      <trkpt lat="44.14402" lon="7.09202">
        <ele>1150.22</ele>
        <time>2018-05-24T07:48:07Z</time>
      </trkpt>
      <trkpt lat="44.14397" lon="7.09201">
        <ele>1150.57</ele>
        <time>2018-05-24T07:48:12Z</time>
      </trkpt>
      <trkpt lat="44.14392" lon="7.09199">
        <ele>1151.21</ele>
        <time>2018-05-24T07:48:18Z</time>
      </trkpt>
      <trkpt lat="44.14395" lon="7.09193">
        <ele>1152.55</ele>
        <time>2018-05-24T07:48:43Z</time>
      </trkpt>
      <trkpt lat="44.144" lon="7.09189">
        <ele>1153.73</ele>
        <time>2018-05-24T07:48:51Z</time>
      </trkpt>
      <trkpt lat="44.14405" lon="7.09186">
        <ele>1154.19</ele>
        <time>2018-05-24T07:48:58Z</time>
      </trkpt>
      <trkpt lat="44.14409" lon="7.09183">
        <ele>1153.75</ele>
        <time>2018-05-24T07:49:07Z</time>
      </trkpt>
      <trkpt lat="44.14413" lon="7.09178">
        <ele>1153.73</ele>
        <time>2018-05-24T07:49:14Z</time>
      </trkpt>
      <trkpt lat="44.14418" lon="7.09176">
        <ele>1154</ele>
        <time>2018-05-24T07:49:17Z</time>
      </trkpt>
      <trkpt lat="44.14422" lon="7.09173">
        <ele>1155.33</ele>
        <time>2018-05-24T07:49:26Z</time>
      </trkpt>
      <trkpt lat="44.14425" lon="7.09169">
        <ele>1157.02</ele>
        <time>2018-05-24T07:49:34Z</time>
      </trkpt>
      <trkpt lat="44.14422" lon="7.09165">
        <ele>1159.96</ele>
        <time>2018-05-24T07:49:52Z</time>
      </trkpt>
      <trkpt lat="44.14416" lon="7.09164">
        <ele>1160.51</ele>
        <time>2018-05-24T07:49:57Z</time>
      </trkpt>
      <trkpt lat="44.14411" lon="7.09164">
        <ele>1161.42</ele>
        <time>2018-05-24T07:50:03Z</time>
      </trkpt>
      <trkpt lat="44.14406" lon="7.09164">
        <ele>1162.86</ele>
        <time>2018-05-24T07:50:11Z</time>
      </trkpt>
      <trkpt lat="44.14401" lon="7.09167">
        <ele>1164.75</ele>
        <time>2018-05-24T07:50:19Z</time>
      </trkpt>
      <trkpt lat="44.14397" lon="7.09165">
        <ele>1166.32</ele>
        <time>2018-05-24T07:50:28Z</time>
      </trkpt>
      <trkpt lat="44.14392" lon="7.09166">
        <ele>1167.56</ele>
        <time>2018-05-24T07:50:35Z</time>
      </trkpt>
      <trkpt lat="44.14387" lon="7.09166">
        <ele>1167.96</ele>
        <time>2018-05-24T07:50:38Z</time>
      </trkpt>
      <trkpt lat="44.14382" lon="7.09165">
        <ele>1169.29</ele>
        <time>2018-05-24T07:50:46Z</time>
      </trkpt>
      <trkpt lat="44.14386" lon="7.09161">
        <ele>1169.42</ele>
        <time>2018-05-24T07:51:02Z</time>
      </trkpt>
      <trkpt lat="44.14388" lon="7.09155">
        <ele>1168.4</ele>
        <time>2018-05-24T07:51:14Z</time>
      </trkpt>
      <trkpt lat="44.14391" lon="7.0915">
        <ele>1168.08</ele>
        <time>2018-05-24T07:51:22Z</time>
      </trkpt>
      <trkpt lat="44.14395" lon="7.09147">
        <ele>1168.34</ele>
        <time>2018-05-24T07:51:31Z</time>
      </trkpt>
      <trkpt lat="44.144" lon="7.09142">
        <ele>1168.78</ele>
        <time>2018-05-24T07:51:37Z</time>
      </trkpt>
      <trkpt lat="44.14403" lon="7.09138">
        <ele>1169.87</ele>
        <time>2018-05-24T07:51:45Z</time>
      </trkpt>
      <trkpt lat="44.14407" lon="7.09133">
        <ele>1170.28</ele>
        <time>2018-05-24T07:51:51Z</time>
      </trkpt>
      <trkpt lat="44.14411" lon="7.0913">
        <ele>1171.32</ele>
        <time>2018-05-24T07:51:58Z</time>
      </trkpt>
      <trkpt lat="44.14415" lon="7.09128">
        <ele>1171.93</ele>
        <time>2018-05-24T07:52:04Z</time>
      </trkpt>
      <trkpt lat="44.14417" lon="7.09121">
        <ele>1171.94</ele>
        <time>2018-05-24T07:52:12Z</time>
      </trkpt>
      <trkpt lat="44.1442" lon="7.09115">
        <ele>1172.39</ele>
        <time>2018-05-24T07:52:18Z</time>
      </trkpt>
      <trkpt lat="44.14416" lon="7.09116">
        <ele>1176.38</ele>
        <time>2018-05-24T07:52:41Z</time>
      </trkpt>
      <trkpt lat="44.14411" lon="7.09118">
        <ele>1177.57</ele>
        <time>2018-05-24T07:52:46Z</time>
      </trkpt>
      <trkpt lat="44.14406" lon="7.09118">
        <ele>1178.62</ele>
        <time>2018-05-24T07:52:51Z</time>
      </trkpt>
      <trkpt lat="44.14402" lon="7.09118">
        <ele>1179.58</ele>
        <time>2018-05-24T07:52:57Z</time>
      </trkpt>
      <trkpt lat="44.14397" lon="7.0912">
        <ele>1180.37</ele>
        <time>2018-05-24T07:53:02Z</time>
      </trkpt>
      <trkpt lat="44.14396" lon="7.09114">
        <ele>1179.4</ele>
        <time>2018-05-24T07:53:27Z</time>
      </trkpt>
      <trkpt lat="44.14392" lon="7.09113">
        <ele>1177.39</ele>
        <time>2018-05-24T07:53:33Z</time>
      </trkpt>
      <trkpt lat="44.14387" lon="7.09116">
        <ele>1175.94</ele>
        <time>2018-05-24T07:53:40Z</time>
      </trkpt>
      <trkpt lat="44.14382" lon="7.0912">
        <ele>1175.34</ele>
        <time>2018-05-24T07:53:48Z</time>
      </trkpt>
      <trkpt lat="44.14378" lon="7.09122">
        <ele>1175.76</ele>
        <time>2018-05-24T07:53:54Z</time>
      </trkpt>
      <trkpt lat="44.14373" lon="7.09124">
        <ele>1176.96</ele>
        <time>2018-05-24T07:53:59Z</time>
      </trkpt>
      <trkpt lat="44.14368" lon="7.09126">
        <ele>1178.56</ele>
        <time>2018-05-24T07:54:06Z</time>
      </trkpt>
      <trkpt lat="44.14363" lon="7.09129">
        <ele>1179.56</ele>
        <time>2018-05-24T07:54:11Z</time>
      </trkpt>
      <trkpt lat="44.14359" lon="7.09132">
        <ele>1180.67</ele>
        <time>2018-05-24T07:54:16Z</time>
      </trkpt>
      <trkpt lat="44.14354" lon="7.09136">
        <ele>1182.64</ele>
        <time>2018-05-24T07:54:23Z</time>
      </trkpt>
      <trkpt lat="44.14349" lon="7.09138">
        <ele>1184.52</ele>
        <time>2018-05-24T07:54:30Z</time>
      </trkpt>
      <trkpt lat="44.14345" lon="7.0914">
        <ele>1186.38</ele>
        <time>2018-05-24T07:54:38Z</time>
      </trkpt>
      <trkpt lat="44.1434" lon="7.09138">
        <ele>1187.97</ele>
        <time>2018-05-24T07:54:56Z</time>
      </trkpt>
      <trkpt lat="44.14345" lon="7.09135">
        <ele>1189.67</ele>
        <time>2018-05-24T07:55:41Z</time>
      </trkpt>
      <trkpt lat="44.14349" lon="7.09131">
        <ele>1190.08</ele>
        <time>2018-05-24T07:55:49Z</time>
      </trkpt>
      <trkpt lat="44.14353" lon="7.09126">
        <ele>1189.96</ele>
        <time>2018-05-24T07:55:55Z</time>
      </trkpt>
      <trkpt lat="44.14356" lon="7.09121">
        <ele>1189.22</ele>
        <time>2018-05-24T07:56:02Z</time>
      </trkpt>
      <trkpt lat="44.1436" lon="7.09115">
        <ele>1188.32</ele>
        <time>2018-05-24T07:56:09Z</time>
      </trkpt>
      <trkpt lat="44.14363" lon="7.0911">
        <ele>1188.23</ele>
        <time>2018-05-24T07:56:16Z</time>
      </trkpt>
      <trkpt lat="44.14366" lon="7.09106">
        <ele>1188.27</ele>
        <time>2018-05-24T07:56:21Z</time>
      </trkpt>
      <trkpt lat="44.1437" lon="7.09102">
        <ele>1188.75</ele>
        <time>2018-05-24T07:56:29Z</time>
      </trkpt>
      <trkpt lat="44.14373" lon="7.09095">
        <ele>1189.37</ele>
        <time>2018-05-24T07:56:36Z</time>
      </trkpt>
      <trkpt lat="44.14378" lon="7.09093">
        <ele>1189.58</ele>
        <time>2018-05-24T07:56:41Z</time>
      </trkpt>
      <trkpt lat="44.14381" lon="7.09088">
        <ele>1189.78</ele>
        <time>2018-05-24T07:56:46Z</time>
      </trkpt>
      <trkpt lat="44.14385" lon="7.09084">
        <ele>1190.37</ele>
        <time>2018-05-24T07:56:53Z</time>
      </trkpt>
      <trkpt lat="44.14382" lon="7.09089">
        <ele>1197.72</ele>
        <time>2018-05-24T07:57:26Z</time>
      </trkpt>
      <trkpt lat="44.14377" lon="7.09091">
        <ele>1199.84</ele>
        <time>2018-05-24T07:57:33Z</time>
      </trkpt>
      <trkpt lat="44.14372" lon="7.09092">
        <ele>1201.11</ele>
        <time>2018-05-24T07:57:39Z</time>
      </trkpt>
      <trkpt lat="44.14368" lon="7.09093">
        <ele>1202.28</ele>
        <time>2018-05-24T07:57:46Z</time>
      </trkpt>
      <trkpt lat="44.14364" lon="7.09098">
        <ele>1203.39</ele>
        <time>2018-05-24T07:57:53Z</time>
      </trkpt>
      <trkpt lat="44.1436" lon="7.09102">
        <ele>1203.75</ele>
        <time>2018-05-24T07:57:58Z</time>
      </trkpt>
      <trkpt lat="44.14356" lon="7.09105">
        <ele>1203.79</ele>
        <time>2018-05-24T07:58:03Z</time>
      </trkpt>
      <trkpt lat="44.14351" lon="7.09106">
        <ele>1203.84</ele>
        <time>2018-05-24T07:58:08Z</time>
      </trkpt>
      <trkpt lat="44.14346" lon="7.09108">
        <ele>1204.26</ele>
        <time>2018-05-24T07:58:14Z</time>
      </trkpt>
      <trkpt lat="44.14341" lon="7.09111">
        <ele>1204.61</ele>
        <time>2018-05-24T07:58:18Z</time>
      </trkpt>
      <trkpt lat="44.14336" lon="7.09111">
        <ele>1204.68</ele>
        <time>2018-05-24T07:58:27Z</time>
      </trkpt>
      <trkpt lat="44.14331" lon="7.09113">
        <ele>1204.45</ele>
        <time>2018-05-24T07:58:34Z</time>
      </trkpt>
      <trkpt lat="44.14327" lon="7.09115">
        <ele>1203.98</ele>
        <time>2018-05-24T07:58:42Z</time>
      </trkpt>
      <trkpt lat="44.14323" lon="7.09119">
        <ele>1204.54</ele>
        <time>2018-05-24T07:58:55Z</time>
      </trkpt>
      <trkpt lat="44.1432" lon="7.09114">
        <ele>1205.05</ele>
        <time>2018-05-24T07:59:10Z</time>
      </trkpt>
      <trkpt lat="44.14314" lon="7.09115">
        <ele>1204.69</ele>
        <time>2018-05-24T07:59:39Z</time>
      </trkpt>
      <trkpt lat="44.14308" lon="7.09114">
        <ele>1205.32</ele>
        <time>2018-05-24T07:59:47Z</time>
      </trkpt>
      <trkpt lat="44.14303" lon="7.09112">
        <ele>1205.43</ele>
        <time>2018-05-24T07:59:52Z</time>
      </trkpt>
      <trkpt lat="44.14299" lon="7.0911">
        <ele>1205.04</ele>
        <time>2018-05-24T07:59:58Z</time>
      </trkpt>
      <trkpt lat="44.14294" lon="7.09111">
        <ele>1204.84</ele>
        <time>2018-05-24T08:00:03Z</time>
      </trkpt>
      <trkpt lat="44.1429" lon="7.09111">
        <ele>1204.87</ele>
        <time>2018-05-24T08:00:07Z</time>
      </trkpt>
      <trkpt lat="44.14285" lon="7.0911">
        <ele>1204.84</ele>
        <time>2018-05-24T08:00:12Z</time>
      </trkpt>
      <trkpt lat="44.1428" lon="7.0911">
        <ele>1205.01</ele>
        <time>2018-05-24T08:00:16Z</time>
      </trkpt>
      <trkpt lat="44.14275" lon="7.09111">
        <ele>1205.16</ele>
        <time>2018-05-24T08:00:22Z</time>
      </trkpt>
      <trkpt lat="44.1427" lon="7.09113">
        <ele>1205.34</ele>
        <time>2018-05-24T08:00:28Z</time>
      </trkpt>
      <trkpt lat="44.14265" lon="7.09115">
        <ele>1206.3</ele>
        <time>2018-05-24T08:00:34Z</time>
      </trkpt>
      <trkpt lat="44.14261" lon="7.09115">
        <ele>1207.81</ele>
        <time>2018-05-24T08:00:41Z</time>
      </trkpt>
      <trkpt lat="44.14256" lon="7.09115">
        <ele>1209.46</ele>
        <time>2018-05-24T08:00:50Z</time>
      </trkpt>
      <trkpt lat="44.14252" lon="7.09113">
        <ele>1210.13</ele>
        <time>2018-05-24T08:00:55Z</time>
      </trkpt>
      <trkpt lat="44.14249" lon="7.09108">
        <ele>1210.44</ele>
        <time>2018-05-24T08:01:03Z</time>
      </trkpt>
      <trkpt lat="44.14244" lon="7.09106">
        <ele>1213.81</ele>
        <time>2018-05-24T08:01:40Z</time>
      </trkpt>
      <trkpt lat="44.14243" lon="7.09099">
        <ele>1212.48</ele>
        <time>2018-05-24T08:02:22Z</time>
      </trkpt>
      <trkpt lat="44.14238" lon="7.09095">
        <ele>1214.66</ele>
        <time>2018-05-24T08:03:05Z</time>
      </trkpt>
      <trkpt lat="44.14234" lon="7.0909">
        <ele>1216.45</ele>
        <time>2018-05-24T08:03:14Z</time>
      </trkpt>
      <trkpt lat="44.14231" lon="7.09084">
        <ele>1217.39</ele>
        <time>2018-05-24T08:03:20Z</time>
      </trkpt>
      <trkpt lat="44.14226" lon="7.09076">
        <ele>1218.22</ele>
        <time>2018-05-24T08:03:23Z</time>
      </trkpt>
      <trkpt lat="44.14221" lon="7.09075">
        <ele>1221.43</ele>
        <time>2018-05-24T08:03:45Z</time>
      </trkpt>
      <trkpt lat="44.14217" lon="7.09073">
        <ele>1221.83</ele>
        <time>2018-05-24T08:04:06Z</time>
      </trkpt>
      <trkpt lat="44.14215" lon="7.09067">
        <ele>1221.74</ele>
        <time>2018-05-24T08:04:14Z</time>
      </trkpt>
      <trkpt lat="44.14211" lon="7.09063">
        <ele>1221.64</ele>
        <time>2018-05-24T08:04:21Z</time>
      </trkpt>
      <trkpt lat="44.14208" lon="7.09058">
        <ele>1223</ele>
        <time>2018-05-24T08:04:34Z</time>
      </trkpt>
      <trkpt lat="44.14207" lon="7.0905">
        <ele>1224.2</ele>
        <time>2018-05-24T08:04:58Z</time>
      </trkpt>
      <trkpt lat="44.14207" lon="7.09044">
        <ele>1225.02</ele>
        <time>2018-05-24T08:05:10Z</time>
      </trkpt>
      <trkpt lat="44.14206" lon="7.09033">
        <ele>1227.72</ele>
        <time>2018-05-24T08:06:24Z</time>
      </trkpt>
      <trkpt lat="44.14206" lon="7.09027">
        <ele>1227.97</ele>
        <time>2018-05-24T08:07:17Z</time>
      </trkpt>
      <trkpt lat="44.14211" lon="7.09024">
        <ele>1226.11</ele>
        <time>2018-05-24T08:07:54Z</time>
      </trkpt>
      <trkpt lat="44.14205" lon="7.0905">
        <ele>1221.95</ele>
        <time>2018-05-24T08:09:21Z</time>
      </trkpt>
      <trkpt lat="44.14201" lon="7.09045">
        <ele>1222.93</ele>
        <time>2018-05-24T08:09:59Z</time>
      </trkpt>
      <trkpt lat="44.14201" lon="7.09037">
        <ele>1222.58</ele>
        <time>2018-05-24T08:10:17Z</time>
      </trkpt>
      <trkpt lat="44.14197" lon="7.09034">
        <ele>1222.56</ele>
        <time>2018-05-24T08:10:18Z</time>
      </trkpt>
      <trkpt lat="44.14194" lon="7.09029">
        <ele>1222.79</ele>
        <time>2018-05-24T08:10:21Z</time>
      </trkpt>
      <trkpt lat="44.14193" lon="7.09021">
        <ele>1223.15</ele>
        <time>2018-05-24T08:10:28Z</time>
      </trkpt>
      <trkpt lat="44.14196" lon="7.09016">
        <ele>1225.27</ele>
        <time>2018-05-24T08:11:29Z</time>
      </trkpt>
      <trkpt lat="44.14192" lon="7.09012">
        <ele>1226.29</ele>
        <time>2018-05-24T08:11:43Z</time>
      </trkpt>
      <trkpt lat="44.14196" lon="7.09016">
        <ele>1227.54</ele>
        <time>2018-05-24T08:12:08Z</time>
      </trkpt>
      <trkpt lat="44.142" lon="7.0902">
        <ele>1228.1</ele>
        <time>2018-05-24T08:14:18Z</time>
      </trkpt>
      <trkpt lat="44.14201" lon="7.09026">
        <ele>1229.72</ele>
        <time>2018-05-24T08:14:30Z</time>
      </trkpt>
      <trkpt lat="44.14351" lon="7.09124">
        <ele>1190.45</ele>
        <time>2018-05-24T08:25:28Z</time>
      </trkpt>
      <trkpt lat="44.14347" lon="7.09128">
        <ele>1190.16</ele>
        <time>2018-05-24T08:25:41Z</time>
      </trkpt>
      <trkpt lat="44.14342" lon="7.09131">
        <ele>1189.55</ele>
        <time>2018-05-24T08:25:45Z</time>
      </trkpt>
      <trkpt lat="44.14346" lon="7.09136">
        <ele>1188.93</ele>
        <time>2018-05-24T08:25:53Z</time>
      </trkpt>
      <trkpt lat="44.14352" lon="7.09135">
        <ele>1188.7</ele>
        <time>2018-05-24T08:25:59Z</time>
      </trkpt>
      <trkpt lat="44.14357" lon="7.09133">
        <ele>1188.06</ele>
        <time>2018-05-24T08:26:03Z</time>
      </trkpt>
      <trkpt lat="44.14361" lon="7.09132">
        <ele>1187.14</ele>
        <time>2018-05-24T08:26:08Z</time>
      </trkpt>
      <trkpt lat="44.14366" lon="7.09133">
        <ele>1186.62</ele>
        <time>2018-05-24T08:26:11Z</time>
      </trkpt>
      <trkpt lat="44.14372" lon="7.09132">
        <ele>1186.16</ele>
        <time>2018-05-24T08:26:16Z</time>
      </trkpt>
      <trkpt lat="44.14377" lon="7.0913">
        <ele>1185.15</ele>
        <time>2018-05-24T08:26:25Z</time>
      </trkpt>
      <trkpt lat="44.14382" lon="7.09131">
        <ele>1184.83</ele>
        <time>2018-05-24T08:26:27Z</time>
      </trkpt>
      <trkpt lat="44.14388" lon="7.09129">
        <ele>1184.34</ele>
        <time>2018-05-24T08:26:31Z</time>
      </trkpt>
      <trkpt lat="44.14393" lon="7.09129">
        <ele>1183.95</ele>
        <time>2018-05-24T08:26:37Z</time>
      </trkpt>
      <trkpt lat="44.14398" lon="7.09127">
        <ele>1183.18</ele>
        <time>2018-05-24T08:26:43Z</time>
      </trkpt>
      <trkpt lat="44.14403" lon="7.09127">
        <ele>1182.84</ele>
        <time>2018-05-24T08:26:48Z</time>
      </trkpt>
      <trkpt lat="44.14409" lon="7.09126">
        <ele>1182.61</ele>
        <time>2018-05-24T08:26:54Z</time>
      </trkpt>
      <trkpt lat="44.14414" lon="7.09124">
        <ele>1182.18</ele>
        <time>2018-05-24T08:26:58Z</time>
      </trkpt>
      <trkpt lat="44.1441" lon="7.0913">
        <ele>1180.66</ele>
        <time>2018-05-24T08:27:22Z</time>
      </trkpt>
      <trkpt lat="44.14406" lon="7.09132">
        <ele>1180.42</ele>
        <time>2018-05-24T08:27:25Z</time>
      </trkpt>
      <trkpt lat="44.144" lon="7.09136">
        <ele>1180.4</ele>
        <time>2018-05-24T08:27:28Z</time>
      </trkpt>
      <trkpt lat="44.14396" lon="7.09139">
        <ele>1179.63</ele>
        <time>2018-05-24T08:27:36Z</time>
      </trkpt>
      <trkpt lat="44.14391" lon="7.09144">
        <ele>1179.05</ele>
        <time>2018-05-24T08:27:41Z</time>
      </trkpt>
      <trkpt lat="44.14387" lon="7.09148">
        <ele>1178.32</ele>
        <time>2018-05-24T08:27:48Z</time>
      </trkpt>
      <trkpt lat="44.14382" lon="7.09153">
        <ele>1177.79</ele>
        <time>2018-05-24T08:27:54Z</time>
      </trkpt>
      <trkpt lat="44.14379" lon="7.09157">
        <ele>1177.39</ele>
        <time>2018-05-24T08:27:57Z</time>
      </trkpt>
      <trkpt lat="44.14374" lon="7.0916">
        <ele>1177.29</ele>
        <time>2018-05-24T08:28:01Z</time>
      </trkpt>
      <trkpt lat="44.14375" lon="7.09169">
        <ele>1177.02</ele>
        <time>2018-05-24T08:28:04Z</time>
      </trkpt>
      <trkpt lat="44.14381" lon="7.0917">
        <ele>1176.06</ele>
        <time>2018-05-24T08:28:08Z</time>
      </trkpt>
      <trkpt lat="44.14385" lon="7.09171">
        <ele>1174.94</ele>
        <time>2018-05-24T08:28:11Z</time>
      </trkpt>
      <trkpt lat="44.1439" lon="7.09169">
        <ele>1173.61</ele>
        <time>2018-05-24T08:28:15Z</time>
      </trkpt>
      <trkpt lat="44.14395" lon="7.09167">
        <ele>1173.02</ele>
        <time>2018-05-24T08:28:17Z</time>
      </trkpt>
      <trkpt lat="44.14401" lon="7.09167">
        <ele>1171.75</ele>
        <time>2018-05-24T08:28:20Z</time>
      </trkpt>
      <trkpt lat="44.14406" lon="7.09167">
        <ele>1169.49</ele>
        <time>2018-05-24T08:28:25Z</time>
      </trkpt>
      <trkpt lat="44.14411" lon="7.09166">
        <ele>1167.96</ele>
        <time>2018-05-24T08:28:30Z</time>
      </trkpt>
      <trkpt lat="44.14416" lon="7.09167">
        <ele>1167.08</ele>
        <time>2018-05-24T08:28:34Z</time>
      </trkpt>
      <trkpt lat="44.14421" lon="7.09166">
        <ele>1165.72</ele>
        <time>2018-05-24T08:28:40Z</time>
      </trkpt>
      <trkpt lat="44.14426" lon="7.09165">
        <ele>1164.07</ele>
        <time>2018-05-24T08:28:46Z</time>
      </trkpt>
      <trkpt lat="44.14425" lon="7.09171">
        <ele>1162.64</ele>
        <time>2018-05-24T08:28:52Z</time>
      </trkpt>
      <trkpt lat="44.1442" lon="7.09173">
        <ele>1162.25</ele>
        <time>2018-05-24T08:28:56Z</time>
      </trkpt>
      <trkpt lat="44.14415" lon="7.09177">
        <ele>1161.35</ele>
        <time>2018-05-24T08:29:01Z</time>
      </trkpt>
      <trkpt lat="44.14411" lon="7.0918">
        <ele>1160.27</ele>
        <time>2018-05-24T08:29:05Z</time>
      </trkpt>
      <trkpt lat="44.14406" lon="7.09183">
        <ele>1158.75</ele>
        <time>2018-05-24T08:29:11Z</time>
      </trkpt>
      <trkpt lat="44.14401" lon="7.09184">
        <ele>1158.05</ele>
        <time>2018-05-24T08:29:15Z</time>
      </trkpt>
      <trkpt lat="44.14396" lon="7.09186">
        <ele>1157.34</ele>
        <time>2018-05-24T08:29:19Z</time>
      </trkpt>
      <trkpt lat="44.14391" lon="7.09188">
        <ele>1156.85</ele>
        <time>2018-05-24T08:29:23Z</time>
      </trkpt>
      <trkpt lat="44.14386" lon="7.0919">
        <ele>1156.43</ele>
        <time>2018-05-24T08:29:27Z</time>
      </trkpt>
      <trkpt lat="44.14382" lon="7.09192">
        <ele>1156.11</ele>
        <time>2018-05-24T08:29:30Z</time>
      </trkpt>
      <trkpt lat="44.14377" lon="7.09195">
        <ele>1155.64</ele>
        <time>2018-05-24T08:29:34Z</time>
      </trkpt>
      <trkpt lat="44.14381" lon="7.09199">
        <ele>1154.11</ele>
        <time>2018-05-24T08:29:39Z</time>
      </trkpt>
      <trkpt lat="44.14386" lon="7.092">
        <ele>1153.31</ele>
        <time>2018-05-24T08:29:42Z</time>
      </trkpt>
      <trkpt lat="44.14392" lon="7.09202">
        <ele>1152.35</ele>
        <time>2018-05-24T08:29:46Z</time>
      </trkpt>
      <trkpt lat="44.14396" lon="7.09205">
        <ele>1151.34</ele>
        <time>2018-05-24T08:29:49Z</time>
      </trkpt>
      <trkpt lat="44.144" lon="7.09206">
        <ele>1150.11</ele>
        <time>2018-05-24T08:29:53Z</time>
      </trkpt>
      <trkpt lat="44.14405" lon="7.09208">
        <ele>1148.87</ele>
        <time>2018-05-24T08:29:58Z</time>
      </trkpt>
      <trkpt lat="44.14409" lon="7.09211">
        <ele>1147.6</ele>
        <time>2018-05-24T08:30:04Z</time>
      </trkpt>
      <trkpt lat="44.14415" lon="7.09212">
        <ele>1146.8</ele>
        <time>2018-05-24T08:30:08Z</time>
      </trkpt>
      <trkpt lat="44.1442" lon="7.09213">
        <ele>1146.07</ele>
        <time>2018-05-24T08:30:12Z</time>
      </trkpt>
      <trkpt lat="44.14425" lon="7.09213">
        <ele>1145.74</ele>
        <time>2018-05-24T08:30:15Z</time>
      </trkpt>
      <trkpt lat="44.1442" lon="7.09217">
        <ele>1144.45</ele>
        <time>2018-05-24T08:30:24Z</time>
      </trkpt>
      <trkpt lat="44.14414" lon="7.09217">
        <ele>1144.01</ele>
        <time>2018-05-24T08:30:27Z</time>
      </trkpt>
      <trkpt lat="44.1441" lon="7.09218">
        <ele>1143.1</ele>
        <time>2018-05-24T08:30:31Z</time>
      </trkpt>
      <trkpt lat="44.14404" lon="7.09218">
        <ele>1141.81</ele>
        <time>2018-05-24T08:30:37Z</time>
      </trkpt>
      <trkpt lat="44.14399" lon="7.09218">
        <ele>1140.57</ele>
        <time>2018-05-24T08:30:42Z</time>
      </trkpt>
      <trkpt lat="44.14402" lon="7.09224">
        <ele>1138.72</ele>
        <time>2018-05-24T08:30:51Z</time>
      </trkpt>
      <trkpt lat="44.14406" lon="7.09225">
        <ele>1137.81</ele>
        <time>2018-05-24T08:30:56Z</time>
      </trkpt>
      <trkpt lat="44.14411" lon="7.09226">
        <ele>1136.87</ele>
        <time>2018-05-24T08:31:00Z</time>
      </trkpt>
      <trkpt lat="44.14417" lon="7.09228">
        <ele>1136.04</ele>
        <time>2018-05-24T08:31:05Z</time>
      </trkpt>
      <trkpt lat="44.14421" lon="7.09231">
        <ele>1135.31</ele>
        <time>2018-05-24T08:31:09Z</time>
      </trkpt>
      <trkpt lat="44.14426" lon="7.09232">
        <ele>1134.47</ele>
        <time>2018-05-24T08:31:12Z</time>
      </trkpt>
      <trkpt lat="44.1443" lon="7.09234">
        <ele>1133.28</ele>
        <time>2018-05-24T08:31:17Z</time>
      </trkpt>
      <trkpt lat="44.14436" lon="7.09235">
        <ele>1132.91</ele>
        <time>2018-05-24T08:31:21Z</time>
      </trkpt>
      <trkpt lat="44.14441" lon="7.09236">
        <ele>1132.72</ele>
        <time>2018-05-24T08:31:25Z</time>
      </trkpt>
      <trkpt lat="44.14445" lon="7.09236">
        <ele>1132.35</ele>
        <time>2018-05-24T08:31:30Z</time>
      </trkpt>
      <trkpt lat="44.14444" lon="7.09243">
        <ele>1130.04</ele>
        <time>2018-05-24T08:31:39Z</time>
      </trkpt>
      <trkpt lat="44.1444" lon="7.09246">
        <ele>1128.79</ele>
        <time>2018-05-24T08:31:44Z</time>
      </trkpt>
      <trkpt lat="44.14435" lon="7.0925">
        <ele>1128.06</ele>
        <time>2018-05-24T08:31:48Z</time>
      </trkpt>
      <trkpt lat="44.14431" lon="7.09254">
        <ele>1127.74</ele>
        <time>2018-05-24T08:31:51Z</time>
      </trkpt>
      <trkpt lat="44.14426" lon="7.09258">
        <ele>1126.95</ele>
        <time>2018-05-24T08:31:55Z</time>
      </trkpt>
      <trkpt lat="44.14421" lon="7.0926">
        <ele>1125.21</ele>
        <time>2018-05-24T08:32:00Z</time>
      </trkpt>
      <trkpt lat="44.14415" lon="7.09259">
        <ele>1123.95</ele>
        <time>2018-05-24T08:32:04Z</time>
      </trkpt>
      <trkpt lat="44.14411" lon="7.09259">
        <ele>1123.14</ele>
        <time>2018-05-24T08:32:07Z</time>
      </trkpt>
      <trkpt lat="44.14415" lon="7.09262">
        <ele>1122.39</ele>
        <time>2018-05-24T08:32:11Z</time>
      </trkpt>
      <trkpt lat="44.1442" lon="7.09266">
        <ele>1121.4</ele>
        <time>2018-05-24T08:32:15Z</time>
      </trkpt>
      <trkpt lat="44.14425" lon="7.09269">
        <ele>1120.58</ele>
        <time>2018-05-24T08:32:18Z</time>
      </trkpt>
      <trkpt lat="44.14431" lon="7.09271">
        <ele>1119.79</ele>
        <time>2018-05-24T08:32:21Z</time>
      </trkpt>
      <trkpt lat="44.14436" lon="7.09273">
        <ele>1119.08</ele>
        <time>2018-05-24T08:32:26Z</time>
      </trkpt>
      <trkpt lat="44.14441" lon="7.09276">
        <ele>1118.41</ele>
        <time>2018-05-24T08:32:32Z</time>
      </trkpt>
      <trkpt lat="44.14447" lon="7.09274">
        <ele>1117.23</ele>
        <time>2018-05-24T08:32:38Z</time>
      </trkpt>
      <trkpt lat="44.14453" lon="7.09275">
        <ele>1116.46</ele>
        <time>2018-05-24T08:32:42Z</time>
      </trkpt>
      <trkpt lat="44.14457" lon="7.09274">
        <ele>1115.53</ele>
        <time>2018-05-24T08:32:48Z</time>
      </trkpt>
      <trkpt lat="44.14462" lon="7.09273">
        <ele>1114.89</ele>
        <time>2018-05-24T08:32:51Z</time>
      </trkpt>
      <trkpt lat="44.14468" lon="7.09272">
        <ele>1113.57</ele>
        <time>2018-05-24T08:32:56Z</time>
      </trkpt>
      <trkpt lat="44.14472" lon="7.09272">
        <ele>1112.38</ele>
        <time>2018-05-24T08:33:02Z</time>
      </trkpt>
      <trkpt lat="44.14477" lon="7.0927">
        <ele>1111.58</ele>
        <time>2018-05-24T08:33:06Z</time>
      </trkpt>
      <trkpt lat="44.14482" lon="7.09268">
        <ele>1110.8</ele>
        <time>2018-05-24T08:33:10Z</time>
      </trkpt>
      <trkpt lat="44.14484" lon="7.09274">
        <ele>1109.89</ele>
        <time>2018-05-24T08:33:17Z</time>
      </trkpt>
      <trkpt lat="44.14479" lon="7.09278">
        <ele>1108.96</ele>
        <time>2018-05-24T08:33:22Z</time>
      </trkpt>
      <trkpt lat="44.14474" lon="7.09281">
        <ele>1108.04</ele>
        <time>2018-05-24T08:33:28Z</time>
      </trkpt>
      <trkpt lat="44.1447" lon="7.09286">
        <ele>1107.28</ele>
        <time>2018-05-24T08:33:32Z</time>
      </trkpt>
      <trkpt lat="44.14466" lon="7.0929">
        <ele>1106.09</ele>
        <time>2018-05-24T08:33:37Z</time>
      </trkpt>
      <trkpt lat="44.14461" lon="7.09293">
        <ele>1105.04</ele>
        <time>2018-05-24T08:33:42Z</time>
      </trkpt>
      <trkpt lat="44.14457" lon="7.09297">
        <ele>1104.37</ele>
        <time>2018-05-24T08:33:47Z</time>
      </trkpt>
      <trkpt lat="44.14452" lon="7.093">
        <ele>1103.37</ele>
        <time>2018-05-24T08:33:52Z</time>
      </trkpt>
      <trkpt lat="44.14446" lon="7.09304">
        <ele>1102.42</ele>
        <time>2018-05-24T08:33:56Z</time>
      </trkpt>
      <trkpt lat="44.14441" lon="7.09307">
        <ele>1101.6</ele>
        <time>2018-05-24T08:34:01Z</time>
      </trkpt>
      <trkpt lat="44.14436" lon="7.09308">
        <ele>1101.01</ele>
        <time>2018-05-24T08:34:05Z</time>
      </trkpt>
      <trkpt lat="44.14431" lon="7.0931">
        <ele>1100.67</ele>
        <time>2018-05-24T08:34:09Z</time>
      </trkpt>
      <trkpt lat="44.14427" lon="7.09312">
        <ele>1099.88</ele>
        <time>2018-05-24T08:34:14Z</time>
      </trkpt>
      <trkpt lat="44.14422" lon="7.09313">
        <ele>1098.88</ele>
        <time>2018-05-24T08:34:18Z</time>
      </trkpt>
      <trkpt lat="44.14418" lon="7.09315">
        <ele>1097.39</ele>
        <time>2018-05-24T08:34:24Z</time>
      </trkpt>
      <trkpt lat="44.14412" lon="7.09315">
        <ele>1096.26</ele>
        <time>2018-05-24T08:34:28Z</time>
      </trkpt>
      <trkpt lat="44.14408" lon="7.09314">
        <ele>1095.47</ele>
        <time>2018-05-24T08:34:32Z</time>
      </trkpt>
      <trkpt lat="44.14403" lon="7.09311">
        <ele>1094.52</ele>
        <time>2018-05-24T08:34:37Z</time>
      </trkpt>
      <trkpt lat="44.14398" lon="7.09311">
        <ele>1093.88</ele>
        <time>2018-05-24T08:34:40Z</time>
      </trkpt>
      <trkpt lat="44.14401" lon="7.09316">
        <ele>1092.98</ele>
        <time>2018-05-24T08:34:44Z</time>
      </trkpt>
      <trkpt lat="44.14403" lon="7.09322">
        <ele>1091.74</ele>
        <time>2018-05-24T08:34:50Z</time>
      </trkpt>
      <trkpt lat="44.14407" lon="7.09325">
        <ele>1090.09</ele>
        <time>2018-05-24T08:35:00Z</time>
      </trkpt>
      <trkpt lat="44.14413" lon="7.09324">
        <ele>1088.9</ele>
        <time>2018-05-24T08:35:31Z</time>
      </trkpt>
      <trkpt lat="44.14417" lon="7.09321">
        <ele>1088.47</ele>
        <time>2018-05-24T08:35:37Z</time>
      </trkpt>
      <trkpt lat="44.14421" lon="7.09325">
        <ele>1088.46</ele>
        <time>2018-05-24T08:35:40Z</time>
      </trkpt>
      <trkpt lat="44.14425" lon="7.09328">
        <ele>1088.07</ele>
        <time>2018-05-24T08:35:43Z</time>
      </trkpt>
      <trkpt lat="44.1443" lon="7.0933">
        <ele>1087.45</ele>
        <time>2018-05-24T08:35:48Z</time>
      </trkpt>
      <trkpt lat="44.14435" lon="7.09333">
        <ele>1086.23</ele>
        <time>2018-05-24T08:35:53Z</time>
      </trkpt>
      <trkpt lat="44.1444" lon="7.09332">
        <ele>1084.12</ele>
        <time>2018-05-24T08:36:01Z</time>
      </trkpt>
      <trkpt lat="44.14445" lon="7.09334">
        <ele>1083.03</ele>
        <time>2018-05-24T08:36:05Z</time>
      </trkpt>
      <trkpt lat="44.14449" lon="7.09338">
        <ele>1081.79</ele>
        <time>2018-05-24T08:36:11Z</time>
      </trkpt>
      <trkpt lat="44.14454" lon="7.0934">
        <ele>1081.19</ele>
        <time>2018-05-24T08:36:15Z</time>
      </trkpt>
      <trkpt lat="44.14458" lon="7.09344">
        <ele>1080.66</ele>
        <time>2018-05-24T08:36:19Z</time>
      </trkpt>
      <trkpt lat="44.14461" lon="7.09349">
        <ele>1078.8</ele>
        <time>2018-05-24T08:36:27Z</time>
      </trkpt>
      <trkpt lat="44.14466" lon="7.09353">
        <ele>1076.96</ele>
        <time>2018-05-24T08:36:34Z</time>
      </trkpt>
      <trkpt lat="44.14471" lon="7.09356">
        <ele>1076.11</ele>
        <time>2018-05-24T08:36:42Z</time>
      </trkpt>
      <trkpt lat="44.14476" lon="7.09358">
        <ele>1075.77</ele>
        <time>2018-05-24T08:36:46Z</time>
      </trkpt>
      <trkpt lat="44.14481" lon="7.09358">
        <ele>1074.21</ele>
        <time>2018-05-24T08:36:57Z</time>
      </trkpt>
      <trkpt lat="44.14486" lon="7.09358">
        <ele>1073.13</ele>
        <time>2018-05-24T08:37:02Z</time>
      </trkpt>
      <trkpt lat="44.1449" lon="7.09357">
        <ele>1071.99</ele>
        <time>2018-05-24T08:37:09Z</time>
      </trkpt>
      <trkpt lat="44.14495" lon="7.09356">
        <ele>1071.11</ele>
        <time>2018-05-24T08:37:14Z</time>
      </trkpt>
      <trkpt lat="44.14491" lon="7.0936">
        <ele>1069.86</ele>
        <time>2018-05-24T08:37:21Z</time>
      </trkpt>
      <trkpt lat="44.14486" lon="7.09363">
        <ele>1068.92</ele>
        <time>2018-05-24T08:37:29Z</time>
      </trkpt>
      <trkpt lat="44.14482" lon="7.09366">
        <ele>1068.14</ele>
        <time>2018-05-24T08:37:37Z</time>
      </trkpt>
      <trkpt lat="44.14478" lon="7.09369">
        <ele>1067.4</ele>
        <time>2018-05-24T08:37:42Z</time>
      </trkpt>
      <trkpt lat="44.14474" lon="7.09372">
        <ele>1066.09</ele>
        <time>2018-05-24T08:37:48Z</time>
      </trkpt>
      <trkpt lat="44.14469" lon="7.09374">
        <ele>1064.66</ele>
        <time>2018-05-24T08:37:57Z</time>
      </trkpt>
      <trkpt lat="44.14465" lon="7.09377">
        <ele>1063.33</ele>
        <time>2018-05-24T08:38:04Z</time>
      </trkpt>
      <trkpt lat="44.1446" lon="7.09379">
        <ele>1062.63</ele>
        <time>2018-05-24T08:38:09Z</time>
      </trkpt>
      <trkpt lat="44.14454" lon="7.0938">
        <ele>1062.09</ele>
        <time>2018-05-24T08:38:13Z</time>
      </trkpt>
      <trkpt lat="44.14449" lon="7.09379">
        <ele>1061.57</ele>
        <time>2018-05-24T08:38:16Z</time>
      </trkpt>
      <trkpt lat="44.14446" lon="7.09374">
        <ele>1060.82</ele>
        <time>2018-05-24T08:38:22Z</time>
      </trkpt>
      <trkpt lat="44.14441" lon="7.0937">
        <ele>1060.62</ele>
        <time>2018-05-24T08:38:26Z</time>
      </trkpt>
      <trkpt lat="44.14444" lon="7.09376">
        <ele>1059.41</ele>
        <time>2018-05-24T08:38:32Z</time>
      </trkpt>
      <trkpt lat="44.14448" lon="7.0938">
        <ele>1058.14</ele>
        <time>2018-05-24T08:38:36Z</time>
      </trkpt>
      <trkpt lat="44.14451" lon="7.09384">
        <ele>1056.75</ele>
        <time>2018-05-24T08:38:42Z</time>
      </trkpt>
      <trkpt lat="44.14455" lon="7.09388">
        <ele>1056.03</ele>
        <time>2018-05-24T08:38:47Z</time>
      </trkpt>
      <trkpt lat="44.14459" lon="7.09392">
        <ele>1055.48</ele>
        <time>2018-05-24T08:38:52Z</time>
      </trkpt>
      <trkpt lat="44.14465" lon="7.09394">
        <ele>1054.78</ele>
        <time>2018-05-24T08:38:57Z</time>
      </trkpt>
      <trkpt lat="44.1447" lon="7.09397">
        <ele>1053.2</ele>
        <time>2018-05-24T08:39:04Z</time>
      </trkpt>
      <trkpt lat="44.14474" lon="7.09401">
        <ele>1052.44</ele>
        <time>2018-05-24T08:39:08Z</time>
      </trkpt>
      <trkpt lat="44.14478" lon="7.09398">
        <ele>1051.81</ele>
        <time>2018-05-24T08:39:15Z</time>
      </trkpt>
      <trkpt lat="44.14482" lon="7.09393">
        <ele>1051.04</ele>
        <time>2018-05-24T08:39:23Z</time>
      </trkpt>
      <trkpt lat="44.14487" lon="7.0939">
        <ele>1051.25</ele>
        <time>2018-05-24T08:39:26Z</time>
      </trkpt>
      <trkpt lat="44.14492" lon="7.09389">
        <ele>1051.45</ele>
        <time>2018-05-24T08:39:30Z</time>
      </trkpt>
      <trkpt lat="44.14497" lon="7.09386">
        <ele>1051.55</ele>
        <time>2018-05-24T08:39:36Z</time>
      </trkpt>
      <trkpt lat="44.14502" lon="7.09384">
        <ele>1051.39</ele>
        <time>2018-05-24T08:39:39Z</time>
      </trkpt>
      <trkpt lat="44.145" lon="7.09391">
        <ele>1050.31</ele>
        <time>2018-05-24T08:39:48Z</time>
      </trkpt>
      <trkpt lat="44.14496" lon="7.09395">
        <ele>1049.65</ele>
        <time>2018-05-24T08:39:52Z</time>
      </trkpt>
      <trkpt lat="44.14492" lon="7.09397">
        <ele>1048.68</ele>
        <time>2018-05-24T08:39:58Z</time>
      </trkpt>
      <trkpt lat="44.14487" lon="7.094">
        <ele>1047.49</ele>
        <time>2018-05-24T08:40:06Z</time>
      </trkpt>
      <trkpt lat="44.14485" lon="7.09408">
        <ele>1046.38</ele>
        <time>2018-05-24T08:40:11Z</time>
      </trkpt>
      <trkpt lat="44.1448" lon="7.09414">
        <ele>1045.09</ele>
        <time>2018-05-24T08:40:16Z</time>
      </trkpt>
      <trkpt lat="44.14477" lon="7.0942">
        <ele>1044.18</ele>
        <time>2018-05-24T08:40:20Z</time>
      </trkpt>
      <trkpt lat="44.14474" lon="7.09424">
        <ele>1043.54</ele>
        <time>2018-05-24T08:40:23Z</time>
      </trkpt>
      <trkpt lat="44.14469" lon="7.09427">
        <ele>1042.67</ele>
        <time>2018-05-24T08:40:27Z</time>
      </trkpt>
      <trkpt lat="44.14464" lon="7.09426">
        <ele>1041.76</ele>
        <time>2018-05-24T08:40:32Z</time>
      </trkpt>
      <trkpt lat="44.1446" lon="7.09425">
        <ele>1040.81</ele>
        <time>2018-05-24T08:40:36Z</time>
      </trkpt>
      <trkpt lat="44.14455" lon="7.09422">
        <ele>1040.08</ele>
        <time>2018-05-24T08:40:39Z</time>
      </trkpt>
      <trkpt lat="44.14451" lon="7.09421">
        <ele>1039.13</ele>
        <time>2018-05-24T08:40:43Z</time>
      </trkpt>
      <trkpt lat="44.14446" lon="7.0942">
        <ele>1037.96</ele>
        <time>2018-05-24T08:40:48Z</time>
      </trkpt>
      <trkpt lat="44.14443" lon="7.09416">
        <ele>1037.03</ele>
        <time>2018-05-24T08:40:59Z</time>
      </trkpt>
      <trkpt lat="44.14447" lon="7.09415">
        <ele>1036</ele>
        <time>2018-05-24T08:41:19Z</time>
      </trkpt>
      <trkpt lat="44.14443" lon="7.09417">
        <ele>1035.19</ele>
        <time>2018-05-24T08:42:15Z</time>
      </trkpt>
      <trkpt lat="44.1444" lon="7.09422">
        <ele>1035.12</ele>
        <time>2018-05-24T08:44:46Z</time>
      </trkpt>
      <trkpt lat="44.14444" lon="7.09425">
        <ele>1034.86</ele>
        <time>2018-05-24T08:44:54Z</time>
      </trkpt>
      <trkpt lat="44.14448" lon="7.09429">
        <ele>1034.39</ele>
        <time>2018-05-24T08:44:59Z</time>
      </trkpt>
      <trkpt lat="44.1445" lon="7.09434">
        <ele>1033.99</ele>
        <time>2018-05-24T08:45:05Z</time>
      </trkpt>
      <trkpt lat="44.14451" lon="7.09441">
        <ele>1033.58</ele>
        <time>2018-05-24T08:45:10Z</time>
      </trkpt>
      <trkpt lat="44.14454" lon="7.09448">
        <ele>1033.16</ele>
        <time>2018-05-24T08:45:14Z</time>
      </trkpt>
      <trkpt lat="44.14458" lon="7.09449">
        <ele>1032.82</ele>
        <time>2018-05-24T08:45:17Z</time>
      </trkpt>
      <trkpt lat="44.14463" lon="7.09451">
        <ele>1032.48</ele>
        <time>2018-05-24T08:45:21Z</time>
      </trkpt>
      <trkpt lat="44.14468" lon="7.09452">
        <ele>1032.14</ele>
        <time>2018-05-24T08:45:26Z</time>
      </trkpt>
      <trkpt lat="44.14473" lon="7.09449">
        <ele>1031.53</ele>
        <time>2018-05-24T08:45:31Z</time>
      </trkpt>
      <trkpt lat="44.14478" lon="7.09446">
        <ele>1030.86</ele>
        <time>2018-05-24T08:45:35Z</time>
      </trkpt>
      <trkpt lat="44.14482" lon="7.09444">
        <ele>1030.48</ele>
        <time>2018-05-24T08:45:39Z</time>
      </trkpt>
      <trkpt lat="44.14487" lon="7.09443">
        <ele>1030.35</ele>
        <time>2018-05-24T08:45:43Z</time>
      </trkpt>
      <trkpt lat="44.14491" lon="7.09442">
        <ele>1029.85</ele>
        <time>2018-05-24T08:45:46Z</time>
      </trkpt>
      <trkpt lat="44.14496" lon="7.09438">
        <ele>1029.4</ele>
        <time>2018-05-24T08:45:49Z</time>
      </trkpt>
      <trkpt lat="44.14491" lon="7.0944">
        <ele>1028.03</ele>
        <time>2018-05-24T08:46:00Z</time>
      </trkpt>
      <trkpt lat="44.14486" lon="7.09443">
        <ele>1027.3</ele>
        <time>2018-05-24T08:46:04Z</time>
      </trkpt>
      <trkpt lat="44.14482" lon="7.09446">
        <ele>1026.1</ele>
        <time>2018-05-24T08:46:09Z</time>
      </trkpt>
      <trkpt lat="44.14478" lon="7.0945">
        <ele>1025.03</ele>
        <time>2018-05-24T08:46:13Z</time>
      </trkpt>
      <trkpt lat="44.14475" lon="7.09455">
        <ele>1023.97</ele>
        <time>2018-05-24T08:46:17Z</time>
      </trkpt>
      <trkpt lat="44.1447" lon="7.09458">
        <ele>1022.41</ele>
        <time>2018-05-24T08:46:22Z</time>
      </trkpt>
      <trkpt lat="44.14464" lon="7.09459">
        <ele>1018.26</ele>
        <time>2018-05-24T08:46:44Z</time>
      </trkpt>
      <trkpt lat="44.14468" lon="7.09463">
        <ele>1017.19</ele>
        <time>2018-05-24T08:46:49Z</time>
      </trkpt>
      <trkpt lat="44.14474" lon="7.09463">
        <ele>1016.3</ele>
        <time>2018-05-24T08:46:54Z</time>
      </trkpt>
      <trkpt lat="44.14479" lon="7.09462">
        <ele>1015.33</ele>
        <time>2018-05-24T08:46:59Z</time>
      </trkpt>
      <trkpt lat="44.14476" lon="7.09469">
        <ele>1012.61</ele>
        <time>2018-05-24T08:47:12Z</time>
      </trkpt>
      <trkpt lat="44.14471" lon="7.09474">
        <ele>1011.5</ele>
        <time>2018-05-24T08:47:17Z</time>
      </trkpt>
      <trkpt lat="44.14467" lon="7.09479">
        <ele>1010.36</ele>
        <time>2018-05-24T08:47:21Z</time>
      </trkpt>
      <trkpt lat="44.14462" lon="7.09477">
        <ele>1008.92</ele>
        <time>2018-05-24T08:47:27Z</time>
      </trkpt>
      <trkpt lat="44.14458" lon="7.09476">
        <ele>1007.98</ele>
        <time>2018-05-24T08:47:31Z</time>
      </trkpt>
      <trkpt lat="44.14453" lon="7.09474">
        <ele>1006.47</ele>
        <time>2018-05-24T08:47:37Z</time>
      </trkpt>
      <trkpt lat="44.14448" lon="7.09471">
        <ele>1004.74</ele>
        <time>2018-05-24T08:47:44Z</time>
      </trkpt>
      <trkpt lat="44.14443" lon="7.0947">
        <ele>1003.73</ele>
        <time>2018-05-24T08:47:48Z</time>
      </trkpt>
      <trkpt lat="44.14438" lon="7.09469">
        <ele>1002.32</ele>
        <time>2018-05-24T08:47:53Z</time>
      </trkpt>
      <trkpt lat="44.14432" lon="7.09469">
        <ele>1001.73</ele>
        <time>2018-05-24T08:48:02Z</time>
      </trkpt>
      <trkpt lat="44.14427" lon="7.09468">
        <ele>1001.7</ele>
        <time>2018-05-24T08:48:09Z</time>
      </trkpt>
      <trkpt lat="44.14423" lon="7.0947">
        <ele>1001.39</ele>
        <time>2018-05-24T08:48:14Z</time>
      </trkpt>
      <trkpt lat="44.14417" lon="7.0947">
        <ele>1001.12</ele>
        <time>2018-05-24T08:48:20Z</time>
      </trkpt>
      <trkpt lat="44.14411" lon="7.09469">
        <ele>1000.72</ele>
        <time>2018-05-24T08:48:24Z</time>
      </trkpt>
      <trkpt lat="44.14407" lon="7.09468">
        <ele>1000.2</ele>
        <time>2018-05-24T08:48:28Z</time>
      </trkpt>
      <trkpt lat="44.14401" lon="7.09467">
        <ele>999.41</ele>
        <time>2018-05-24T08:48:33Z</time>
      </trkpt>
      <trkpt lat="44.14397" lon="7.09463">
        <ele>998.54</ele>
        <time>2018-05-24T08:48:37Z</time>
      </trkpt>
      <trkpt lat="44.14394" lon="7.09458">
        <ele>997.88</ele>
        <time>2018-05-24T08:48:43Z</time>
      </trkpt>
      <trkpt lat="44.14394" lon="7.09451">
        <ele>997.44</ele>
        <time>2018-05-24T08:48:46Z</time>
      </trkpt>
      <trkpt lat="44.14392" lon="7.09445">
        <ele>996.73</ele>
        <time>2018-05-24T08:48:50Z</time>
      </trkpt>
      <trkpt lat="44.14387" lon="7.09439">
        <ele>995.42</ele>
        <time>2018-05-24T08:48:55Z</time>
      </trkpt>
      <trkpt lat="44.14382" lon="7.09439">
        <ele>993.57</ele>
        <time>2018-05-24T08:49:02Z</time>
      </trkpt>
      <trkpt lat="44.14378" lon="7.09438">
        <ele>992.6</ele>
        <time>2018-05-24T08:49:07Z</time>
      </trkpt>
      <trkpt lat="44.14374" lon="7.09435">
        <ele>991.29</ele>
        <time>2018-05-24T08:49:13Z</time>
      </trkpt>
      <trkpt lat="44.14369" lon="7.09432">
        <ele>989.95</ele>
        <time>2018-05-24T08:49:19Z</time>
      </trkpt>
      <trkpt lat="44.14363" lon="7.09434">
        <ele>988.98</ele>
        <time>2018-05-24T08:49:23Z</time>
      </trkpt>
      <trkpt lat="44.14359" lon="7.09436">
        <ele>988.11</ele>
        <time>2018-05-24T08:49:27Z</time>
      </trkpt>
      <trkpt lat="44.14354" lon="7.09439">
        <ele>987.66</ele>
        <time>2018-05-24T08:49:30Z</time>
      </trkpt>
      <trkpt lat="44.14349" lon="7.0944">
        <ele>987.05</ele>
        <time>2018-05-24T08:49:35Z</time>
      </trkpt>
      <trkpt lat="44.14344" lon="7.09438">
        <ele>986.19</ele>
        <time>2018-05-24T08:49:41Z</time>
      </trkpt>
      <trkpt lat="44.14339" lon="7.0944">
        <ele>985.78</ele>
        <time>2018-05-24T08:49:44Z</time>
      </trkpt>
      <trkpt lat="44.14343" lon="7.09447">
        <ele>985.39</ele>
        <time>2018-05-24T08:49:47Z</time>
      </trkpt>
      <trkpt lat="44.14348" lon="7.09447">
        <ele>984.95</ele>
        <time>2018-05-24T08:49:51Z</time>
      </trkpt>
      <trkpt lat="44.14353" lon="7.09449">
        <ele>984.36</ele>
        <time>2018-05-24T08:49:56Z</time>
      </trkpt>
      <trkpt lat="44.14359" lon="7.09447">
        <ele>983.6</ele>
        <time>2018-05-24T08:50:00Z</time>
      </trkpt>
      <trkpt lat="44.14364" lon="7.09448">
        <ele>982.7</ele>
        <time>2018-05-24T08:50:04Z</time>
      </trkpt>
      <trkpt lat="44.14368" lon="7.09451">
        <ele>980.4</ele>
        <time>2018-05-24T08:50:13Z</time>
      </trkpt>
      <trkpt lat="44.14372" lon="7.09454">
        <ele>978.94</ele>
        <time>2018-05-24T08:50:19Z</time>
      </trkpt>
      <trkpt lat="44.14376" lon="7.09458">
        <ele>978.19</ele>
        <time>2018-05-24T08:50:23Z</time>
      </trkpt>
      <trkpt lat="44.14379" lon="7.09464">
        <ele>976.24</ele>
        <time>2018-05-24T08:50:31Z</time>
      </trkpt>
      <trkpt lat="44.14377" lon="7.09469">
        <ele>974.43</ele>
        <time>2018-05-24T08:50:37Z</time>
      </trkpt>
      <trkpt lat="44.14373" lon="7.09474">
        <ele>972.73</ele>
        <time>2018-05-24T08:50:43Z</time>
      </trkpt>
      <trkpt lat="44.14372" lon="7.09481">
        <ele>971.38</ele>
        <time>2018-05-24T08:50:49Z</time>
      </trkpt>
      <trkpt lat="44.14375" lon="7.09487">
        <ele>970.83</ele>
        <time>2018-05-24T08:50:55Z</time>
      </trkpt>
      <trkpt lat="44.14379" lon="7.09491">
        <ele>970.73</ele>
        <time>2018-05-24T08:50:59Z</time>
      </trkpt>
      <trkpt lat="44.14385" lon="7.09494">
        <ele>970.67</ele>
        <time>2018-05-24T08:51:02Z</time>
      </trkpt>
      <trkpt lat="44.1439" lon="7.09496">
        <ele>970.15</ele>
        <time>2018-05-24T08:51:06Z</time>
      </trkpt>
      <trkpt lat="44.14394" lon="7.09499">
        <ele>969.42</ele>
        <time>2018-05-24T08:51:11Z</time>
      </trkpt>
      <trkpt lat="44.14399" lon="7.095">
        <ele>968.62</ele>
        <time>2018-05-24T08:51:16Z</time>
      </trkpt>
      <trkpt lat="44.14404" lon="7.09501">
        <ele>967.84</ele>
        <time>2018-05-24T08:51:21Z</time>
      </trkpt>
      <trkpt lat="44.14409" lon="7.09503">
        <ele>966.69</ele>
        <time>2018-05-24T08:51:28Z</time>
      </trkpt>
      <trkpt lat="44.14405" lon="7.09508">
        <ele>965.5</ele>
        <time>2018-05-24T08:51:35Z</time>
      </trkpt>
      <trkpt lat="44.144" lon="7.0951">
        <ele>963.79</ele>
        <time>2018-05-24T08:51:46Z</time>
      </trkpt>
      <trkpt lat="44.14395" lon="7.09512">
        <ele>962.97</ele>
        <time>2018-05-24T08:51:50Z</time>
      </trkpt>
      <trkpt lat="44.14391" lon="7.09511">
        <ele>962.03</ele>
        <time>2018-05-24T08:51:55Z</time>
      </trkpt>
      <trkpt lat="44.14386" lon="7.0951">
        <ele>961.79</ele>
        <time>2018-05-24T08:52:00Z</time>
      </trkpt>
      <trkpt lat="44.14382" lon="7.09512">
        <ele>961.25</ele>
        <time>2018-05-24T08:52:06Z</time>
      </trkpt>
      <trkpt lat="44.14377" lon="7.09514">
        <ele>961.49</ele>
        <time>2018-05-24T08:52:16Z</time>
      </trkpt>
      <trkpt lat="44.14371" lon="7.09515">
        <ele>961.43</ele>
        <time>2018-05-24T08:52:20Z</time>
      </trkpt>
      <trkpt lat="44.14367" lon="7.09515">
        <ele>960.83</ele>
        <time>2018-05-24T08:52:24Z</time>
      </trkpt>
      <trkpt lat="44.14362" lon="7.09515">
        <ele>959.55</ele>
        <time>2018-05-24T08:52:30Z</time>
      </trkpt>
      <trkpt lat="44.14358" lon="7.09513">
        <ele>958.26</ele>
        <time>2018-05-24T08:52:36Z</time>
      </trkpt>
      <trkpt lat="44.14363" lon="7.09514">
        <ele>956.72</ele>
        <time>2018-05-24T08:52:44Z</time>
      </trkpt>
      <trkpt lat="44.14369" lon="7.09517">
        <ele>955.98</ele>
        <time>2018-05-24T08:52:48Z</time>
      </trkpt>
      <trkpt lat="44.14374" lon="7.09518">
        <ele>954.88</ele>
        <time>2018-05-24T08:52:53Z</time>
      </trkpt>
      <trkpt lat="44.14379" lon="7.09519">
        <ele>954.15</ele>
        <time>2018-05-24T08:52:57Z</time>
      </trkpt>
      <trkpt lat="44.14375" lon="7.09524">
        <ele>952.7</ele>
        <time>2018-05-24T08:53:05Z</time>
      </trkpt>
      <trkpt lat="44.14371" lon="7.09527">
        <ele>952.16</ele>
        <time>2018-05-24T08:53:08Z</time>
      </trkpt>
      <trkpt lat="44.14366" lon="7.0953">
        <ele>951.23</ele>
        <time>2018-05-24T08:53:13Z</time>
      </trkpt>
      <trkpt lat="44.14361" lon="7.0953">
        <ele>950.41</ele>
        <time>2018-05-24T08:53:18Z</time>
      </trkpt>
      <trkpt lat="44.14356" lon="7.09529">
        <ele>949.48</ele>
        <time>2018-05-24T08:53:23Z</time>
      </trkpt>
      <trkpt lat="44.14351" lon="7.09532">
        <ele>948.76</ele>
        <time>2018-05-24T08:53:27Z</time>
      </trkpt>
      <trkpt lat="44.14346" lon="7.09534">
        <ele>948.03</ele>
        <time>2018-05-24T08:53:31Z</time>
      </trkpt>
      <trkpt lat="44.14342" lon="7.0953">
        <ele>947.19</ele>
        <time>2018-05-24T08:53:36Z</time>
      </trkpt>
      <trkpt lat="44.14344" lon="7.09524">
        <ele>945.93</ele>
        <time>2018-05-24T08:53:41Z</time>
      </trkpt>
      <trkpt lat="44.14346" lon="7.09518">
        <ele>945.06</ele>
        <time>2018-05-24T08:53:48Z</time>
      </trkpt>
      <trkpt lat="44.14348" lon="7.09511">
        <ele>943.17</ele>
        <time>2018-05-24T08:53:58Z</time>
      </trkpt>
      <trkpt lat="44.14348" lon="7.09504">
        <ele>941.74</ele>
        <time>2018-05-24T08:54:09Z</time>
      </trkpt>
      <trkpt lat="44.14343" lon="7.095">
        <ele>940.92</ele>
        <time>2018-05-24T08:54:15Z</time>
      </trkpt>
      <trkpt lat="44.14338" lon="7.09499">
        <ele>939.96</ele>
        <time>2018-05-24T08:54:23Z</time>
      </trkpt>
      <trkpt lat="44.14332" lon="7.09498">
        <ele>939.48</ele>
        <time>2018-05-24T08:54:27Z</time>
      </trkpt>
      <trkpt lat="44.14327" lon="7.09498">
        <ele>939.12</ele>
        <time>2018-05-24T08:54:30Z</time>
      </trkpt>
      <trkpt lat="44.14323" lon="7.09498">
        <ele>938.39</ele>
        <time>2018-05-24T08:54:34Z</time>
      </trkpt>
      <trkpt lat="44.14318" lon="7.09497">
        <ele>937.77</ele>
        <time>2018-05-24T08:54:38Z</time>
      </trkpt>
      <trkpt lat="44.14314" lon="7.09493">
        <ele>936.26</ele>
        <time>2018-05-24T08:54:45Z</time>
      </trkpt>
      <trkpt lat="44.14312" lon="7.09487">
        <ele>935.3</ele>
        <time>2018-05-24T08:54:50Z</time>
      </trkpt>
      <trkpt lat="44.14307" lon="7.09486">
        <ele>933.94</ele>
        <time>2018-05-24T08:54:57Z</time>
      </trkpt>
      <trkpt lat="44.14303" lon="7.0949">
        <ele>932.65</ele>
        <time>2018-05-24T08:55:03Z</time>
      </trkpt>
      <trkpt lat="44.14299" lon="7.09494">
        <ele>931.7</ele>
        <time>2018-05-24T08:55:09Z</time>
      </trkpt>
      <trkpt lat="44.14293" lon="7.09498">
        <ele>931.01</ele>
        <time>2018-05-24T08:55:15Z</time>
      </trkpt>
      <trkpt lat="44.14288" lon="7.095">
        <ele>930.66</ele>
        <time>2018-05-24T08:55:19Z</time>
      </trkpt>
      <trkpt lat="44.14281" lon="7.09501">
        <ele>930.06</ele>
        <time>2018-05-24T08:55:24Z</time>
      </trkpt>
      <trkpt lat="44.14276" lon="7.095">
        <ele>928.02</ele>
        <time>2018-05-24T08:55:33Z</time>
      </trkpt>
      <trkpt lat="44.14273" lon="7.09505">
        <ele>926.93</ele>
        <time>2018-05-24T08:55:38Z</time>
      </trkpt>
      <trkpt lat="44.1427" lon="7.09511">
        <ele>926.24</ele>
        <time>2018-05-24T08:55:41Z</time>
      </trkpt>
      <trkpt lat="44.14265" lon="7.09513">
        <ele>925.47</ele>
        <time>2018-05-24T08:55:45Z</time>
      </trkpt>
      <trkpt lat="44.14261" lon="7.09517">
        <ele>924.42</ele>
        <time>2018-05-24T08:55:50Z</time>
      </trkpt>
      <trkpt lat="44.14255" lon="7.09517">
        <ele>923.16</ele>
        <time>2018-05-24T08:55:56Z</time>
      </trkpt>
      <trkpt lat="44.1425" lon="7.09517">
        <ele>922.72</ele>
        <time>2018-05-24T08:56:00Z</time>
      </trkpt>
      <trkpt lat="44.14252" lon="7.09522">
        <ele>921.82</ele>
        <time>2018-05-24T08:56:09Z</time>
      </trkpt>
      <trkpt lat="44.14257" lon="7.09525">
        <ele>920.42</ele>
        <time>2018-05-24T08:56:15Z</time>
      </trkpt>
      <trkpt lat="44.14262" lon="7.09528">
        <ele>919.65</ele>
        <time>2018-05-24T08:56:19Z</time>
      </trkpt>
      <trkpt lat="44.14258" lon="7.09532">
        <ele>917.94</ele>
        <time>2018-05-24T08:56:35Z</time>
      </trkpt>
      <trkpt lat="44.14252" lon="7.09532">
        <ele>916.01</ele>
        <time>2018-05-24T08:56:44Z</time>
      </trkpt>
      <trkpt lat="44.14247" lon="7.09531">
        <ele>914.73</ele>
        <time>2018-05-24T08:56:53Z</time>
      </trkpt>
      <trkpt lat="44.14244" lon="7.09527">
        <ele>913.69</ele>
        <time>2018-05-24T08:57:08Z</time>
      </trkpt>
      <trkpt lat="44.14239" lon="7.09526">
        <ele>912.56</ele>
        <time>2018-05-24T08:57:15Z</time>
      </trkpt>
      <trkpt lat="44.14234" lon="7.09528">
        <ele>911.36</ele>
        <time>2018-05-24T08:57:20Z</time>
      </trkpt>
      <trkpt lat="44.14229" lon="7.09526">
        <ele>910.1</ele>
        <time>2018-05-24T08:57:27Z</time>
      </trkpt>
      <trkpt lat="44.14225" lon="7.09529">
        <ele>909.12</ele>
        <time>2018-05-24T08:57:33Z</time>
      </trkpt>
      <trkpt lat="44.14221" lon="7.09531">
        <ele>908.26</ele>
        <time>2018-05-24T08:57:45Z</time>
      </trkpt>
      <trkpt lat="44.14217" lon="7.09534">
        <ele>908.13</ele>
        <time>2018-05-24T08:59:42Z</time>
      </trkpt>
      <trkpt lat="44.14212" lon="7.09536">
        <ele>907.45</ele>
        <time>2018-05-24T08:59:53Z</time>
      </trkpt>
      <trkpt lat="44.14208" lon="7.0954">
        <ele>907.14</ele>
        <time>2018-05-24T08:59:57Z</time>
      </trkpt>
      <trkpt lat="44.14204" lon="7.09543">
        <ele>906.33</ele>
        <time>2018-05-24T09:00:02Z</time>
      </trkpt>
      <trkpt lat="44.14209" lon="7.09546">
        <ele>905.49</ele>
        <time>2018-05-24T09:00:18Z</time>
      </trkpt>
      <trkpt lat="44.14214" lon="7.09543">
        <ele>904.74</ele>
        <time>2018-05-24T09:00:24Z</time>
      </trkpt>
      <trkpt lat="44.14218" lon="7.09544">
        <ele>904</ele>
        <time>2018-05-24T09:00:28Z</time>
      </trkpt>
      <trkpt lat="44.14223" lon="7.09541">
        <ele>902.53</ele>
        <time>2018-05-24T09:00:34Z</time>
      </trkpt>
      <trkpt lat="44.14228" lon="7.0954">
        <ele>901.84</ele>
        <time>2018-05-24T09:00:36Z</time>
      </trkpt>
      <trkpt lat="44.14233" lon="7.09541">
        <ele>901.09</ele>
        <time>2018-05-24T09:00:39Z</time>
      </trkpt>
      <trkpt lat="44.14239" lon="7.09542">
        <ele>900.15</ele>
        <time>2018-05-24T09:00:44Z</time>
      </trkpt>
      <trkpt lat="44.14245" lon="7.09544">
        <ele>899.12</ele>
        <time>2018-05-24T09:00:50Z</time>
      </trkpt>
      <trkpt lat="44.14249" lon="7.09545">
        <ele>898.66</ele>
        <time>2018-05-24T09:00:53Z</time>
      </trkpt>
      <trkpt lat="44.14254" lon="7.09546">
        <ele>898.52</ele>
        <time>2018-05-24T09:00:56Z</time>
      </trkpt>
      <trkpt lat="44.14259" lon="7.09546">
        <ele>898.31</ele>
        <time>2018-05-24T09:01:00Z</time>
      </trkpt>
      <trkpt lat="44.14264" lon="7.09547">
        <ele>897.58</ele>
        <time>2018-05-24T09:01:07Z</time>
      </trkpt>
      <trkpt lat="44.14268" lon="7.09547">
        <ele>896.39</ele>
        <time>2018-05-24T09:01:12Z</time>
      </trkpt>
      <trkpt lat="44.14268" lon="7.09553">
        <ele>892.62</ele>
        <time>2018-05-24T09:01:26Z</time>
      </trkpt>
      <trkpt lat="44.14264" lon="7.09557">
        <ele>891.45</ele>
        <time>2018-05-24T09:01:31Z</time>
      </trkpt>
      <trkpt lat="44.14259" lon="7.09558">
        <ele>890.02</ele>
        <time>2018-05-24T09:01:38Z</time>
      </trkpt>
      <trkpt lat="44.14254" lon="7.09561">
        <ele>889.13</ele>
        <time>2018-05-24T09:01:44Z</time>
      </trkpt>
      <trkpt lat="44.1425" lon="7.09565">
        <ele>888.73</ele>
        <time>2018-05-24T09:01:49Z</time>
      </trkpt>
      <trkpt lat="44.14246" lon="7.09567">
        <ele>887.2</ele>
        <time>2018-05-24T09:01:58Z</time>
      </trkpt>
      <trkpt lat="44.14241" lon="7.09569">
        <ele>885.74</ele>
        <time>2018-05-24T09:02:06Z</time>
      </trkpt>
      <trkpt lat="44.14237" lon="7.0957">
        <ele>884.16</ele>
        <time>2018-05-24T09:02:12Z</time>
      </trkpt>
      <trkpt lat="44.14232" lon="7.09571">
        <ele>882.78</ele>
        <time>2018-05-24T09:02:17Z</time>
      </trkpt>
      <trkpt lat="44.14227" lon="7.09573">
        <ele>881.77</ele>
        <time>2018-05-24T09:02:21Z</time>
      </trkpt>
      <trkpt lat="44.14231" lon="7.09571">
        <ele>879.75</ele>
        <time>2018-05-24T09:02:29Z</time>
      </trkpt>
      <trkpt lat="44.14237" lon="7.09569">
        <ele>878.87</ele>
        <time>2018-05-24T09:02:33Z</time>
      </trkpt>
      <trkpt lat="44.14242" lon="7.0957">
        <ele>877.27</ele>
        <time>2018-05-24T09:02:43Z</time>
      </trkpt>
      <trkpt lat="44.14247" lon="7.09574">
        <ele>875.7</ele>
        <time>2018-05-24T09:02:49Z</time>
      </trkpt>
      <trkpt lat="44.14252" lon="7.09574">
        <ele>874.03</ele>
        <time>2018-05-24T09:02:55Z</time>
      </trkpt>
      <trkpt lat="44.14256" lon="7.09573">
        <ele>873.17</ele>
        <time>2018-05-24T09:02:58Z</time>
      </trkpt>
      <trkpt lat="44.14261" lon="7.09573">
        <ele>872.2</ele>
        <time>2018-05-24T09:03:01Z</time>
      </trkpt>
      <trkpt lat="44.14266" lon="7.09574">
        <ele>870.43</ele>
        <time>2018-05-24T09:03:07Z</time>
      </trkpt>
      <trkpt lat="44.14271" lon="7.09574">
        <ele>869.04</ele>
        <time>2018-05-24T09:03:14Z</time>
      </trkpt>
      <trkpt lat="44.14276" lon="7.09572">
        <ele>868.3</ele>
        <time>2018-05-24T09:03:18Z</time>
      </trkpt>
      <trkpt lat="44.1428" lon="7.09576">
        <ele>867.67</ele>
        <time>2018-05-24T09:03:23Z</time>
      </trkpt>
      <trkpt lat="44.1428" lon="7.09583">
        <ele>866.12</ele>
        <time>2018-05-24T09:03:32Z</time>
      </trkpt>
      <trkpt lat="44.14275" lon="7.09586">
        <ele>865.01</ele>
        <time>2018-05-24T09:03:36Z</time>
      </trkpt>
      <trkpt lat="44.14271" lon="7.09588">
        <ele>864.16</ele>
        <time>2018-05-24T09:03:40Z</time>
      </trkpt>
      <trkpt lat="44.14266" lon="7.09588">
        <ele>863.01</ele>
        <time>2018-05-24T09:03:47Z</time>
      </trkpt>
      <trkpt lat="44.14261" lon="7.09589">
        <ele>862.12</ele>
        <time>2018-05-24T09:03:53Z</time>
      </trkpt>
      <trkpt lat="44.14256" lon="7.09589">
        <ele>860.76</ele>
        <time>2018-05-24T09:04:07Z</time>
      </trkpt>
      <trkpt lat="44.14251" lon="7.0959">
        <ele>859.54</ele>
        <time>2018-05-24T09:04:22Z</time>
      </trkpt>
      <trkpt lat="44.14247" lon="7.09593">
        <ele>857.88</ele>
        <time>2018-05-24T09:04:34Z</time>
      </trkpt>
      <trkpt lat="44.14243" lon="7.09594">
        <ele>857.66</ele>
        <time>2018-05-24T09:04:38Z</time>
      </trkpt>
      <trkpt lat="44.14238" lon="7.09594">
        <ele>857.08</ele>
        <time>2018-05-24T09:04:42Z</time>
      </trkpt>
      <trkpt lat="44.14233" lon="7.09592">
        <ele>856.63</ele>
        <time>2018-05-24T09:04:46Z</time>
      </trkpt>
      <trkpt lat="44.14229" lon="7.09595">
        <ele>855.86</ele>
        <time>2018-05-24T09:04:53Z</time>
      </trkpt>
      <trkpt lat="44.14224" lon="7.09599">
        <ele>855.46</ele>
        <time>2018-05-24T09:04:57Z</time>
      </trkpt>
      <trkpt lat="44.14229" lon="7.09598">
        <ele>853.17</ele>
        <time>2018-05-24T09:05:09Z</time>
      </trkpt>
      <trkpt lat="44.14233" lon="7.096">
        <ele>852.47</ele>
        <time>2018-05-24T09:05:13Z</time>
      </trkpt>
      <trkpt lat="44.14237" lon="7.09604">
        <ele>851.59</ele>
        <time>2018-05-24T09:05:17Z</time>
      </trkpt>
      <trkpt lat="44.14241" lon="7.09606">
        <ele>851.09</ele>
        <time>2018-05-24T09:05:23Z</time>
      </trkpt>
      <trkpt lat="44.14246" lon="7.09606">
        <ele>850.5</ele>
        <time>2018-05-24T09:05:28Z</time>
      </trkpt>
      <trkpt lat="44.14251" lon="7.09606">
        <ele>849.62</ele>
        <time>2018-05-24T09:05:32Z</time>
      </trkpt>
      <trkpt lat="44.14253" lon="7.09611">
        <ele>849.32</ele>
        <time>2018-05-24T09:05:35Z</time>
      </trkpt>
      <trkpt lat="44.14258" lon="7.09613">
        <ele>848.92</ele>
        <time>2018-05-24T09:05:40Z</time>
      </trkpt>
      <trkpt lat="44.14263" lon="7.0961">
        <ele>847.86</ele>
        <time>2018-05-24T09:05:44Z</time>
      </trkpt>
      <trkpt lat="44.14261" lon="7.09615">
        <ele>846.45</ele>
        <time>2018-05-24T09:05:49Z</time>
      </trkpt>
      <trkpt lat="44.14257" lon="7.09619">
        <ele>845.76</ele>
        <time>2018-05-24T09:05:51Z</time>
      </trkpt>
      <trkpt lat="44.14252" lon="7.09618">
        <ele>844.63</ele>
        <time>2018-05-24T09:05:56Z</time>
      </trkpt>
      <trkpt lat="44.14246" lon="7.09618">
        <ele>843.95</ele>
        <time>2018-05-24T09:06:02Z</time>
      </trkpt>
      <trkpt lat="44.14248" lon="7.09624">
        <ele>842.09</ele>
        <time>2018-05-24T09:06:12Z</time>
      </trkpt>
      <trkpt lat="44.1425" lon="7.0963">
        <ele>841.37</ele>
        <time>2018-05-24T09:06:16Z</time>
      </trkpt>
      <trkpt lat="44.14252" lon="7.09637">
        <ele>840.39</ele>
        <time>2018-05-24T09:06:21Z</time>
      </trkpt>
      <trkpt lat="44.14256" lon="7.09636">
        <ele>839.52</ele>
        <time>2018-05-24T09:06:26Z</time>
      </trkpt>
      <trkpt lat="44.14253" lon="7.09642">
        <ele>836.54</ele>
        <time>2018-05-24T09:06:41Z</time>
      </trkpt>
      <trkpt lat="44.14251" lon="7.09649">
        <ele>835.64</ele>
        <time>2018-05-24T09:06:46Z</time>
      </trkpt>
      <trkpt lat="44.14246" lon="7.09648">
        <ele>834.17</ele>
        <time>2018-05-24T09:06:51Z</time>
      </trkpt>
      <trkpt lat="44.1424" lon="7.09647">
        <ele>833.75</ele>
        <time>2018-05-24T09:06:55Z</time>
      </trkpt>
      <trkpt lat="44.14235" lon="7.09645">
        <ele>833.01</ele>
        <time>2018-05-24T09:07:00Z</time>
      </trkpt>
      <trkpt lat="44.14229" lon="7.09644">
        <ele>832.27</ele>
        <time>2018-05-24T09:07:08Z</time>
      </trkpt>
      <trkpt lat="44.14231" lon="7.09651">
        <ele>831.22</ele>
        <time>2018-05-24T09:07:15Z</time>
      </trkpt>
      <trkpt lat="44.14233" lon="7.09657">
        <ele>829.62</ele>
        <time>2018-05-24T09:07:21Z</time>
      </trkpt>
      <trkpt lat="44.14237" lon="7.09662">
        <ele>827.31</ele>
        <time>2018-05-24T09:07:28Z</time>
      </trkpt>
      <trkpt lat="44.14238" lon="7.0967">
        <ele>825.25</ele>
        <time>2018-05-24T09:07:34Z</time>
      </trkpt>
      <trkpt lat="44.14239" lon="7.09677">
        <ele>824.13</ele>
        <time>2018-05-24T09:07:38Z</time>
      </trkpt>
      <trkpt lat="44.14237" lon="7.0967">
        <ele>821.67</ele>
        <time>2018-05-24T09:07:52Z</time>
      </trkpt>
      <trkpt lat="44.14233" lon="7.09666">
        <ele>818.86</ele>
        <time>2018-05-24T09:07:59Z</time>
      </trkpt>
      <trkpt lat="44.14229" lon="7.09662">
        <ele>817.98</ele>
        <time>2018-05-24T09:08:03Z</time>
      </trkpt>
      <trkpt lat="44.14224" lon="7.09661">
        <ele>818.5</ele>
        <time>2018-05-24T09:08:41Z</time>
      </trkpt>
      <trkpt lat="44.14219" lon="7.09661">
        <ele>818.76</ele>
        <time>2018-05-24T09:08:50Z</time>
      </trkpt>
      <trkpt lat="44.14213" lon="7.09663">
        <ele>818.18</ele>
        <time>2018-05-24T09:08:57Z</time>
      </trkpt>
      <trkpt lat="44.14209" lon="7.09666">
        <ele>817.07</ele>
        <time>2018-05-24T09:09:01Z</time>
      </trkpt>
      <trkpt lat="44.14204" lon="7.09668">
        <ele>815.44</ele>
        <time>2018-05-24T09:09:07Z</time>
      </trkpt>
      <trkpt lat="44.142" lon="7.09671">
        <ele>812.58</ele>
        <time>2018-05-24T09:09:15Z</time>
      </trkpt>
      <trkpt lat="44.14194" lon="7.09675">
        <ele>811.31</ele>
        <time>2018-05-24T09:09:19Z</time>
      </trkpt>
      <trkpt lat="44.1419" lon="7.0968">
        <ele>810.14</ele>
        <time>2018-05-24T09:09:23Z</time>
      </trkpt>
      <trkpt lat="44.14185" lon="7.09682">
        <ele>809.21</ele>
        <time>2018-05-24T09:09:26Z</time>
      </trkpt>
      <trkpt lat="44.1418" lon="7.09685">
        <ele>808.06</ele>
        <time>2018-05-24T09:09:30Z</time>
      </trkpt>
      <trkpt lat="44.14175" lon="7.09688">
        <ele>807.04</ele>
        <time>2018-05-24T09:09:35Z</time>
      </trkpt>
      <trkpt lat="44.1417" lon="7.0969">
        <ele>805.27</ele>
        <time>2018-05-24T09:09:41Z</time>
      </trkpt>
      <trkpt lat="44.14166" lon="7.09694">
        <ele>804.15</ele>
        <time>2018-05-24T09:09:45Z</time>
      </trkpt>
      <trkpt lat="44.14161" lon="7.09695">
        <ele>802.92</ele>
        <time>2018-05-24T09:09:49Z</time>
      </trkpt>
      <trkpt lat="44.14157" lon="7.09695">
        <ele>801.2</ele>
        <time>2018-05-24T09:09:55Z</time>
      </trkpt>
      <trkpt lat="44.14152" lon="7.09696">
        <ele>799.36</ele>
        <time>2018-05-24T09:10:02Z</time>
      </trkpt>
      <trkpt lat="44.14147" lon="7.09699">
        <ele>797.84</ele>
        <time>2018-05-24T09:10:08Z</time>
      </trkpt>
      <trkpt lat="44.14143" lon="7.09702">
        <ele>796.5</ele>
        <time>2018-05-24T09:10:13Z</time>
      </trkpt>
      <trkpt lat="44.14146" lon="7.09706">
        <ele>793.37</ele>
        <time>2018-05-24T09:10:30Z</time>
      </trkpt>
      <trkpt lat="44.14152" lon="7.09704">
        <ele>793.2</ele>
        <time>2018-05-24T09:10:34Z</time>
      </trkpt>
      <trkpt lat="44.14158" lon="7.09705">
        <ele>792.82</ele>
        <time>2018-05-24T09:10:37Z</time>
      </trkpt>
      <trkpt lat="44.14163" lon="7.09707">
        <ele>792.3</ele>
        <time>2018-05-24T09:10:40Z</time>
      </trkpt>
      <trkpt lat="44.14168" lon="7.09709">
        <ele>791.08</ele>
        <time>2018-05-24T09:10:47Z</time>
      </trkpt>
      <trkpt lat="44.14172" lon="7.0971">
        <ele>790.77</ele>
        <time>2018-05-24T09:10:52Z</time>
      </trkpt>
      <trkpt lat="44.14177" lon="7.09713">
        <ele>790.86</ele>
        <time>2018-05-24T09:11:01Z</time>
      </trkpt>
      <trkpt lat="44.14182" lon="7.09711">
        <ele>790.67</ele>
        <time>2018-05-24T09:11:06Z</time>
      </trkpt>
      <trkpt lat="44.14179" lon="7.09717">
        <ele>787.14</ele>
        <time>2018-05-24T09:11:22Z</time>
      </trkpt>
      <trkpt lat="44.14173" lon="7.09718">
        <ele>786.37</ele>
        <time>2018-05-24T09:11:26Z</time>
      </trkpt>
      <trkpt lat="44.14168" lon="7.0972">
        <ele>785.17</ele>
        <time>2018-05-24T09:11:31Z</time>
      </trkpt>
      <trkpt lat="44.14164" lon="7.0972">
        <ele>784.64</ele>
        <time>2018-05-24T09:11:35Z</time>
      </trkpt>
      <trkpt lat="44.14159" lon="7.09722">
        <ele>784.14</ele>
        <time>2018-05-24T09:11:39Z</time>
      </trkpt>
      <trkpt lat="44.14154" lon="7.0972">
        <ele>783.45</ele>
        <time>2018-05-24T09:11:57Z</time>
      </trkpt>
      <trkpt lat="44.1415" lon="7.09723">
        <ele>782.86</ele>
        <time>2018-05-24T09:12:01Z</time>
      </trkpt>
      <trkpt lat="44.14145" lon="7.09724">
        <ele>782.16</ele>
        <time>2018-05-24T09:12:05Z</time>
      </trkpt>
      <trkpt lat="44.1414" lon="7.09727">
        <ele>781.59</ele>
        <time>2018-05-24T09:12:09Z</time>
      </trkpt>
      <trkpt lat="44.14137" lon="7.09733">
        <ele>781.29</ele>
        <time>2018-05-24T09:12:14Z</time>
      </trkpt>
      <trkpt lat="44.14135" lon="7.09738">
        <ele>780.89</ele>
        <time>2018-05-24T09:12:18Z</time>
      </trkpt>
      <trkpt lat="44.14131" lon="7.09742">
        <ele>780.7</ele>
        <time>2018-05-24T09:12:24Z</time>
      </trkpt>
      <trkpt lat="44.14127" lon="7.09745">
        <ele>780.27</ele>
        <time>2018-05-24T09:12:28Z</time>
      </trkpt>
      <trkpt lat="44.14121" lon="7.09749">
        <ele>779.66</ele>
        <time>2018-05-24T09:12:32Z</time>
      </trkpt>
      <trkpt lat="44.14116" lon="7.09751">
        <ele>779.2</ele>
        <time>2018-05-24T09:12:36Z</time>
      </trkpt>
      <trkpt lat="44.14112" lon="7.09754">
        <ele>778.12</ele>
        <time>2018-05-24T09:12:41Z</time>
      </trkpt>
      <trkpt lat="44.14107" lon="7.09757">
        <ele>777.04</ele>
        <time>2018-05-24T09:12:46Z</time>
      </trkpt>
      <trkpt lat="44.14103" lon="7.09761">
        <ele>775.82</ele>
        <time>2018-05-24T09:12:52Z</time>
      </trkpt>
      <trkpt lat="44.14099" lon="7.09765">
        <ele>774.64</ele>
        <time>2018-05-24T09:12:57Z</time>
      </trkpt>
      <trkpt lat="44.14094" lon="7.09768">
        <ele>773.59</ele>
        <time>2018-05-24T09:13:01Z</time>
      </trkpt>
      <trkpt lat="44.14089" lon="7.09767">
        <ele>771.56</ele>
        <time>2018-05-24T09:13:09Z</time>
      </trkpt>
      <trkpt lat="44.14085" lon="7.09767">
        <ele>768.86</ele>
        <time>2018-05-24T09:13:18Z</time>
      </trkpt>
      <trkpt lat="44.1408" lon="7.09768">
        <ele>766.57</ele>
        <time>2018-05-24T09:13:29Z</time>
      </trkpt>
      <trkpt lat="44.14075" lon="7.0977">
        <ele>766.73</ele>
        <time>2018-05-24T09:13:33Z</time>
      </trkpt>
      <trkpt lat="44.1407" lon="7.09769">
        <ele>766.63</ele>
        <time>2018-05-24T09:13:37Z</time>
      </trkpt>
      <trkpt lat="44.14065" lon="7.09766">
        <ele>766.35</ele>
        <time>2018-05-24T09:13:41Z</time>
      </trkpt>
      <trkpt lat="44.1406" lon="7.09767">
        <ele>765.8</ele>
        <time>2018-05-24T09:13:48Z</time>
      </trkpt>
      <trkpt lat="44.14056" lon="7.09771">
        <ele>765.37</ele>
        <time>2018-05-24T09:13:54Z</time>
      </trkpt>
      <trkpt lat="44.14052" lon="7.09774">
        <ele>765.24</ele>
        <time>2018-05-24T09:13:58Z</time>
      </trkpt>
      <trkpt lat="44.14049" lon="7.09778">
        <ele>765.34</ele>
        <time>2018-05-24T09:14:02Z</time>
      </trkpt>
      <trkpt lat="44.14044" lon="7.09783">
        <ele>764.57</ele>
        <time>2018-05-24T09:14:07Z</time>
      </trkpt>
      <trkpt lat="44.1404" lon="7.09788">
        <ele>763.41</ele>
        <time>2018-05-24T09:14:12Z</time>
      </trkpt>
      <trkpt lat="44.14036" lon="7.09792">
        <ele>762.14</ele>
        <time>2018-05-24T09:14:19Z</time>
      </trkpt>
      <trkpt lat="44.14031" lon="7.09795">
        <ele>761.71</ele>
        <time>2018-05-24T09:14:23Z</time>
      </trkpt>
      <trkpt lat="44.14027" lon="7.09799">
        <ele>761.37</ele>
        <time>2018-05-24T09:14:27Z</time>
      </trkpt>
      <trkpt lat="44.14022" lon="7.09798">
        <ele>760.52</ele>
        <time>2018-05-24T09:14:35Z</time>
      </trkpt>
      <trkpt lat="44.14017" lon="7.09795">
        <ele>760.01</ele>
        <time>2018-05-24T09:14:44Z</time>
      </trkpt>
      <trkpt lat="44.14012" lon="7.09791">
        <ele>759.68</ele>
        <time>2018-05-24T09:14:54Z</time>
      </trkpt>
      <trkpt lat="44.14007" lon="7.09788">
        <ele>759.15</ele>
        <time>2018-05-24T09:14:59Z</time>
      </trkpt>
      <trkpt lat="44.14002" lon="7.09787">
        <ele>757.74</ele>
        <time>2018-05-24T09:15:06Z</time>
      </trkpt>
      <trkpt lat="44.13997" lon="7.09788">
        <ele>756.92</ele>
        <time>2018-05-24T09:15:11Z</time>
      </trkpt>
      <trkpt lat="44.13993" lon="7.0979">
        <ele>756.5</ele>
        <time>2018-05-24T09:15:13Z</time>
      </trkpt>
      <trkpt lat="44.13996" lon="7.09796">
        <ele>755.48</ele>
        <time>2018-05-24T09:15:17Z</time>
      </trkpt>
      <trkpt lat="44.13996" lon="7.09802">
        <ele>754.52</ele>
        <time>2018-05-24T09:15:23Z</time>
      </trkpt>
      <trkpt lat="44.13997" lon="7.09809">
        <ele>753.41</ele>
        <time>2018-05-24T09:15:28Z</time>
      </trkpt>
      <trkpt lat="44.13997" lon="7.09817">
        <ele>750.86</ele>
        <time>2018-05-24T09:15:36Z</time>
      </trkpt>
      <trkpt lat="44.13995" lon="7.09823">
        <ele>749.6</ele>
        <time>2018-05-24T09:15:41Z</time>
      </trkpt>
      <trkpt lat="44.13992" lon="7.09829">
        <ele>748.96</ele>
        <time>2018-05-24T09:15:46Z</time>
      </trkpt>
      <trkpt lat="44.1399" lon="7.09835">
        <ele>749.68</ele>
        <time>2018-05-24T09:15:51Z</time>
      </trkpt>
      <trkpt lat="44.13987" lon="7.09841">
        <ele>750.23</ele>
        <time>2018-05-24T09:15:56Z</time>
      </trkpt>
      <trkpt lat="44.13984" lon="7.09846">
        <ele>750.77</ele>
        <time>2018-05-24T09:16:00Z</time>
      </trkpt>
      <trkpt lat="44.13981" lon="7.09852">
        <ele>751.66</ele>
        <time>2018-05-24T09:16:05Z</time>
      </trkpt>
      <trkpt lat="44.13979" lon="7.09857">
        <ele>752.38</ele>
        <time>2018-05-24T09:16:09Z</time>
      </trkpt>
      <trkpt lat="44.13974" lon="7.09861">
        <ele>752.86</ele>
        <time>2018-05-24T09:16:14Z</time>
      </trkpt>
      <trkpt lat="44.13969" lon="7.09866">
        <ele>753.88</ele>
        <time>2018-05-24T09:16:21Z</time>
      </trkpt>
      <trkpt lat="44.13965" lon="7.09868">
        <ele>754.76</ele>
        <time>2018-05-24T09:16:26Z</time>
      </trkpt>
      <trkpt lat="44.13959" lon="7.09868">
        <ele>755.38</ele>
        <time>2018-05-24T09:16:33Z</time>
      </trkpt>
      <trkpt lat="44.13955" lon="7.09865">
        <ele>755.55</ele>
        <time>2018-05-24T09:16:41Z</time>
      </trkpt>
      <trkpt lat="44.1395" lon="7.09866">
        <ele>752.32</ele>
        <time>2018-05-24T09:17:09Z</time>
      </trkpt>
      <trkpt lat="44.13945" lon="7.09868">
        <ele>750.47</ele>
        <time>2018-05-24T09:17:15Z</time>
      </trkpt>
      <trkpt lat="44.13941" lon="7.09871">
        <ele>748.45</ele>
        <time>2018-05-24T09:17:24Z</time>
      </trkpt>
      <trkpt lat="44.13936" lon="7.09875">
        <ele>747.09</ele>
        <time>2018-05-24T09:17:31Z</time>
      </trkpt>
      <trkpt lat="44.13933" lon="7.09881">
        <ele>746.19</ele>
        <time>2018-05-24T09:17:36Z</time>
      </trkpt>
      <trkpt lat="44.13929" lon="7.09884">
        <ele>743.54</ele>
        <time>2018-05-24T09:17:45Z</time>
      </trkpt>
      <trkpt lat="44.13924" lon="7.09887">
        <ele>742.05</ele>
        <time>2018-05-24T09:17:50Z</time>
      </trkpt>
      <trkpt lat="44.1392" lon="7.09891">
        <ele>740.61</ele>
        <time>2018-05-24T09:17:55Z</time>
      </trkpt>
      <trkpt lat="44.13915" lon="7.09894">
        <ele>739.9</ele>
        <time>2018-05-24T09:18:00Z</time>
      </trkpt>
      <trkpt lat="44.13911" lon="7.09897">
        <ele>739.74</ele>
        <time>2018-05-24T09:18:09Z</time>
      </trkpt>
      <trkpt lat="44.13907" lon="7.09901">
        <ele>739.83</ele>
        <time>2018-05-24T09:18:16Z</time>
      </trkpt>
      <trkpt lat="44.13903" lon="7.09902">
        <ele>739.37</ele>
        <time>2018-05-24T09:18:30Z</time>
      </trkpt>
      <trkpt lat="44.13899" lon="7.09907">
        <ele>739.84</ele>
        <time>2018-05-24T09:18:57Z</time>
      </trkpt>
      <trkpt lat="44.13905" lon="7.09909">
        <ele>742.5</ele>
        <time>2018-05-24T09:19:35Z</time>
      </trkpt>
      <trkpt lat="44.13902" lon="7.09903">
        <ele>742.57</ele>
        <time>2018-05-24T09:19:48Z</time>
      </trkpt>
      <trkpt lat="44.13897" lon="7.09904">
        <ele>740.37</ele>
        <time>2018-05-24T09:20:04Z</time>
      </trkpt>
      <trkpt lat="44.13894" lon="7.09909">
        <ele>738.66</ele>
        <time>2018-05-24T09:20:12Z</time>
      </trkpt>
      <trkpt lat="44.13891" lon="7.09914">
        <ele>738.06</ele>
        <time>2018-05-24T09:20:17Z</time>
      </trkpt>
      <trkpt lat="44.13891" lon="7.09921">
        <ele>738</ele>
        <time>2018-05-24T09:20:24Z</time>
      </trkpt>
      <trkpt lat="44.13889" lon="7.09927">
        <ele>737.79</ele>
        <time>2018-05-24T09:20:28Z</time>
      </trkpt>
      <trkpt lat="44.13886" lon="7.09932">
        <ele>737.49</ele>
        <time>2018-05-24T09:20:32Z</time>
      </trkpt>
      <trkpt lat="44.13881" lon="7.09938">
        <ele>737.1</ele>
        <time>2018-05-24T09:20:37Z</time>
      </trkpt>
      <trkpt lat="44.13876" lon="7.0994">
        <ele>737.04</ele>
        <time>2018-05-24T09:20:41Z</time>
      </trkpt>
      <trkpt lat="44.13876" lon="7.09948">
        <ele>737.56</ele>
        <time>2018-05-24T09:20:48Z</time>
      </trkpt>
      <trkpt lat="44.13873" lon="7.09953">
        <ele>737.37</ele>
        <time>2018-05-24T09:20:53Z</time>
      </trkpt>
      <trkpt lat="44.13871" lon="7.09959">
        <ele>737.46</ele>
        <time>2018-05-24T09:20:57Z</time>
      </trkpt>
      <trkpt lat="44.13869" lon="7.09966">
        <ele>738.74</ele>
        <time>2018-05-24T09:21:03Z</time>
      </trkpt>
      <trkpt lat="44.13869" lon="7.09972">
        <ele>739.96</ele>
        <time>2018-05-24T09:21:08Z</time>
      </trkpt>
      <trkpt lat="44.13865" lon="7.09977">
        <ele>740.17</ele>
        <time>2018-05-24T09:21:14Z</time>
      </trkpt>
      <trkpt lat="44.13861" lon="7.0998">
        <ele>739.47</ele>
        <time>2018-05-24T09:21:18Z</time>
      </trkpt>
      <trkpt lat="44.13864" lon="7.09974">
        <ele>734.23</ele>
        <time>2018-05-24T09:21:35Z</time>
      </trkpt>
      <trkpt lat="44.13868" lon="7.0997">
        <ele>731.73</ele>
        <time>2018-05-24T09:21:44Z</time>
      </trkpt>
      <trkpt lat="44.13873" lon="7.09967">
        <ele>730.55</ele>
        <time>2018-05-24T09:21:49Z</time>
      </trkpt>
      <trkpt lat="44.13876" lon="7.09962">
        <ele>729.97</ele>
        <time>2018-05-24T09:21:53Z</time>
      </trkpt>
      <trkpt lat="44.13882" lon="7.09957">
        <ele>729.97</ele>
        <time>2018-05-24T09:21:59Z</time>
      </trkpt>
      <trkpt lat="44.13887" lon="7.09954">
        <ele>730.32</ele>
        <time>2018-05-24T09:22:06Z</time>
      </trkpt>
      <trkpt lat="44.13892" lon="7.0995">
        <ele>730.69</ele>
        <time>2018-05-24T09:22:12Z</time>
      </trkpt>
      <trkpt lat="44.13897" lon="7.09947">
        <ele>731.12</ele>
        <time>2018-05-24T09:22:17Z</time>
      </trkpt>
      <trkpt lat="44.13901" lon="7.09944">
        <ele>730.96</ele>
        <time>2018-05-24T09:22:21Z</time>
      </trkpt>
      <trkpt lat="44.13906" lon="7.09941">
        <ele>730.15</ele>
        <time>2018-05-24T09:22:25Z</time>
      </trkpt>
      <trkpt lat="44.13911" lon="7.09939">
        <ele>728.42</ele>
        <time>2018-05-24T09:22:30Z</time>
      </trkpt>
      <trkpt lat="44.13916" lon="7.09939">
        <ele>726.62</ele>
        <time>2018-05-24T09:22:39Z</time>
      </trkpt>
      <trkpt lat="44.1392" lon="7.09935">
        <ele>725.81</ele>
        <time>2018-05-24T09:22:46Z</time>
      </trkpt>
      <trkpt lat="44.1392" lon="7.09927">
        <ele>725.54</ele>
        <time>2018-05-24T09:22:51Z</time>
      </trkpt>
    </trkseg>
  </trk>
</gpx>